AIC127 LOWW-KORD
Flight info
| Callsign | AIC127 |
|---|---|
| Flight time | N/A |
| Altitude | 36000 |
| Route | MEDIX DCT LAMSI DCT RUDNO DCT ZUCKA DCT ATTUS P992 BAVTA DCT MITSI DCT BAXOL/N0493F380 DCT RIGVU DCT BAMRA DCT BILLY DCT ATSIX/M085F380 DCT 61N015W 61N020W 61N030W 62N040W 62N050W/M084F400 62N055W DCT MAXAR/N0495F400 DCT RODBO DCT 53N072W 52N074W DCT GRAMP DCT BAFAL DCT JARRO DCT SSM WYNDE2 |
| Aircraft | A359/H-SDE2E3GHIJ3J4J5LM1ORWXY/LB1D1 |
Departure
| Time | 2026-05-06 14:37 |
|---|---|
| Airport | Vienna International Airport (LOWW) |
Arrival
| Time | N/A |
|---|---|
| Airport | Chicago O'Hare International Airport (KORD) |
| Time | Latitude | Longitude | Altitude | Speed | Heading |
|---|---|---|---|---|---|
| 2026-05-06 13:30 | 48.12329 | 16.57104 | 631 ft | 0 kts | 26° |
| 2026-05-06 14:22 | 48.12327 | 16.57102 | 615 ft | 3 kts | 26° |
| 2026-05-06 14:23 | 48.12304 | 16.57082 | 620 ft | 4 kts | 40° |
| 2026-05-06 14:23 | 48.12287 | 16.57054 | 630 ft | 4 kts | 63° |
| 2026-05-06 14:23 | 48.12279 | 16.57016 | 630 ft | 4 kts | 90° |
| 2026-05-06 14:23 | 48.12283 | 16.56977 | 632 ft | 4 kts | 111° |
| 2026-05-06 14:24 | 48.12295 | 16.56941 | 630 ft | 4 kts | 117° |
| 2026-05-06 14:24 | 48.12297 | 16.56933 | 630 ft | 0 kts | 116° |
| 2026-05-06 14:25 | 48.12298 | 16.56933 | 630 ft | 0 kts | 116° |
| 2026-05-06 14:25 | 48.12298 | 16.56932 | 630 ft | 0 kts | 116° |
| 2026-05-06 14:26 | 48.12296 | 16.56937 | 630 ft | 2 kts | 116° |
| 2026-05-06 14:26 | 48.12296 | 16.56939 | 630 ft | 2 kts | 116° |
| 2026-05-06 14:26 | 48.12288 | 16.56962 | 621 ft | 5 kts | 116° |
| 2026-05-06 14:27 | 48.12263 | 16.57035 | 622 ft | 10 kts | 116° |
| 2026-05-06 14:27 | 48.12228 | 16.57143 | 630 ft | 12 kts | 116° |
| 2026-05-06 14:27 | 48.12191 | 16.57255 | 627 ft | 12 kts | 116° |
| 2026-05-06 14:27 | 48.12135 | 16.57335 | 626 ft | 11 kts | 158° |
| 2026-05-06 14:28 | 48.12062 | 16.57369 | 621 ft | 11 kts | 164° |
| 2026-05-06 14:28 | 48.12014 | 16.57432 | 630 ft | 10 kts | 100° |
| 2026-05-06 14:28 | 48.12003 | 16.57536 | 622 ft | 10 kts | 103° |
| 2026-05-06 14:28 | 48.11997 | 16.57574 | 619 ft | 0 kts | 103° |
| 2026-05-06 14:33 | 48.11997 | 16.57573 | 615 ft | 0 kts | 103° |
| 2026-05-06 14:35 | 48.11997 | 16.57575 | 615 ft | 1 kts | 103° |
| 2026-05-06 14:36 | 48.11991 | 16.57613 | 620 ft | 7 kts | 103° |
| 2026-05-06 14:36 | 48.11976 | 16.57704 | 628 ft | 11 kts | 104° |
| 2026-05-06 14:36 | 48.11944 | 16.57817 | 630 ft | 11 kts | 130° |
| 2026-05-06 14:36 | 48.11878 | 16.57860 | 630 ft | 10 kts | 163° |
| 2026-05-06 14:37 | 48.11722 | 16.57926 | 628 ft | 49 kts | 165° |
| 2026-05-06 14:37 | 48.11211 | 16.58141 | 628 ft | 102 kts | 164° |
| 2026-05-06 14:37 | 48.10370 | 16.58492 | 635 ft | 146 kts | 166° |
| 2026-05-06 14:37 | 48.09424 | 16.58884 | 1257 ft | 140 kts | 167° |
| 2026-05-06 14:38 | 48.08416 | 16.59299 | 1571 ft | 158 kts | 168° |
| 2026-05-06 14:38 | 48.07303 | 16.59556 | 1929 ft | 175 kts | 182° |
| 2026-05-06 14:38 | 48.06083 | 16.58942 | 2188 ft | 192 kts | 212° |
| 2026-05-06 14:38 | 48.04996 | 16.57733 | 2644 ft | 196 kts | 217° |
| 2026-05-06 14:39 | 48.03927 | 16.56446 | 3149 ft | 198 kts | 217° |
| 2026-05-06 14:39 | 48.02978 | 16.54948 | 3657 ft | 202 kts | 234° |
| 2026-05-06 14:39 | 48.02511 | 16.52907 | 3981 ft | 220 kts | 258° |
| 2026-05-06 14:39 | 48.02463 | 16.50511 | 4174 ft | 240 kts | 264° |
| 2026-05-06 14:40 | 48.02500 | 16.47969 | 4399 ft | 255 kts | 265° |
| 2026-05-06 14:40 | 48.02540 | 16.45261 | 4929 ft | 258 kts | 265° |
| 2026-05-06 14:40 | 48.02568 | 16.42624 | 5549 ft | 258 kts | 265° |
| 2026-05-06 14:40 | 48.02588 | 16.39942 | 6150 ft | 258 kts | 265° |
| 2026-05-06 14:41 | 48.02692 | 16.37248 | 6645 ft | 265 kts | 275° |
| 2026-05-06 14:41 | 48.03237 | 16.34584 | 7218 ft | 270 kts | 287° |
| 2026-05-06 14:41 | 48.03960 | 16.31983 | 7803 ft | 271 kts | 288° |
| 2026-05-06 14:41 | 48.04698 | 16.29385 | 8363 ft | 273 kts | 288° |
| 2026-05-06 14:42 | 48.05440 | 16.26760 | 8900 ft | 275 kts | 288° |
| 2026-05-06 14:42 | 48.06182 | 16.24107 | 9442 ft | 277 kts | 288° |
| 2026-05-06 14:42 | 48.06925 | 16.21436 | 9956 ft | 282 kts | 288° |
| 2026-05-06 14:42 | 48.07691 | 16.18670 | 10178 ft | 295 kts | 288° |
| 2026-05-06 14:43 | 48.08494 | 16.15764 | 10377 ft | 309 kts | 288° |
| 2026-05-06 14:43 | 48.09332 | 16.12730 | 10561 ft | 322 kts | 288° |
| 2026-05-06 14:43 | 48.10202 | 16.09574 | 10767 ft | 334 kts | 288° |
| 2026-05-06 14:43 | 48.11104 | 16.06301 | 10957 ft | 346 kts | 288° |
| 2026-05-06 14:44 | 48.12036 | 16.02911 | 11114 ft | 358 kts | 288° |
| 2026-05-06 14:44 | 48.12682 | 16.00560 | 11214 ft | 365 kts | 289° |
| 2026-05-06 14:44 | 48.13656 | 15.97024 | 11572 ft | 370 kts | 289° |
| 2026-05-06 14:45 | 48.15629 | 15.89882 | 12356 ft | 376 kts | 290° |
| 2026-05-06 14:45 | 48.16659 | 15.86262 | 12722 ft | 379 kts | 290° |
| 2026-05-06 14:45 | 48.17695 | 15.82627 | 13190 ft | 380 kts | 290° |
| 2026-05-06 14:45 | 48.18733 | 15.78972 | 13586 ft | 382 kts | 290° |
| 2026-05-06 14:46 | 48.19772 | 15.75303 | 13965 ft | 384 kts | 290° |
| 2026-05-06 14:46 | 48.20803 | 15.71647 | 14299 ft | 387 kts | 290° |
| 2026-05-06 14:46 | 48.21850 | 15.67934 | 14706 ft | 388 kts | 290° |
| 2026-05-06 14:46 | 48.22901 | 15.64195 | 15055 ft | 390 kts | 289° |
| 2026-05-06 14:47 | 48.23956 | 15.60437 | 15446 ft | 392 kts | 289° |
| 2026-05-06 14:47 | 48.25014 | 15.56662 | 15805 ft | 394 kts | 289° |
| 2026-05-06 14:47 | 48.26075 | 15.52869 | 16209 ft | 395 kts | 289° |
| 2026-05-06 14:47 | 48.27140 | 15.49057 | 16600 ft | 396 kts | 288° |
| 2026-05-06 14:48 | 48.28207 | 15.45229 | 16980 ft | 398 kts | 288° |
| 2026-05-06 14:48 | 48.29252 | 15.41374 | 17374 ft | 399 kts | 286° |
| 2026-05-06 14:48 | 48.30177 | 15.37446 | 17761 ft | 399 kts | 284° |
| 2026-05-06 14:48 | 48.31025 | 15.33473 | 18120 ft | 400 kts | 283° |
| 2026-05-06 14:49 | 48.31836 | 15.29469 | 18446 ft | 402 kts | 282° |
| 2026-05-06 14:49 | 48.32638 | 15.25439 | 18757 ft | 403 kts | 282° |
| 2026-05-06 14:49 | 48.33442 | 15.21393 | 19058 ft | 405 kts | 282° |
| 2026-05-06 14:49 | 48.34254 | 15.17326 | 19355 ft | 408 kts | 282° |
| 2026-05-06 14:50 | 48.35076 | 15.13237 | 19674 ft | 409 kts | 282° |
| 2026-05-06 14:50 | 48.35905 | 15.09137 | 19982 ft | 411 kts | 282° |
| 2026-05-06 14:50 | 48.36739 | 15.05016 | 20272 ft | 413 kts | 282° |
| 2026-05-06 14:50 | 48.37577 | 15.00881 | 20578 ft | 414 kts | 282° |
| 2026-05-06 14:51 | 48.38416 | 14.96729 | 20871 ft | 416 kts | 282° |
| 2026-05-06 14:51 | 48.39257 | 14.92557 | 21172 ft | 417 kts | 282° |
| 2026-05-06 14:51 | 48.40099 | 14.88370 | 21466 ft | 419 kts | 282° |
| 2026-05-06 14:51 | 48.40942 | 14.84169 | 21756 ft | 421 kts | 282° |
| 2026-05-06 14:52 | 48.41787 | 14.79946 | 22072 ft | 422 kts | 282° |
| 2026-05-06 14:52 | 48.42633 | 14.75702 | 22320 ft | 425 kts | 281° |
| 2026-05-06 14:52 | 48.43483 | 14.71432 | 22589 ft | 427 kts | 281° |
| 2026-05-06 14:52 | 48.44336 | 14.67138 | 22857 ft | 429 kts | 281° |
| 2026-05-06 14:53 | 48.45191 | 14.62833 | 23129 ft | 430 kts | 281° |
| 2026-05-06 14:53 | 48.46048 | 14.58504 | 23402 ft | 432 kts | 281° |
| 2026-05-06 14:53 | 48.46905 | 14.54162 | 23618 ft | 433 kts | 281° |
| 2026-05-06 14:53 | 48.47764 | 14.49803 | 23881 ft | 434 kts | 281° |
| 2026-05-06 14:54 | 48.48623 | 14.45433 | 24141 ft | 435 kts | 281° |
| 2026-05-06 14:54 | 48.49484 | 14.41050 | 24401 ft | 436 kts | 281° |
| 2026-05-06 14:54 | 48.50343 | 14.36661 | 24677 ft | 437 kts | 281° |
| 2026-05-06 14:54 | 48.51202 | 14.32259 | 24935 ft | 438 kts | 281° |
| 2026-05-06 14:55 | 48.52062 | 14.27845 | 25188 ft | 439 kts | 281° |
| 2026-05-06 14:55 | 48.52922 | 14.23413 | 25408 ft | 441 kts | 281° |
| 2026-05-06 14:55 | 48.53782 | 14.18973 | 25663 ft | 442 kts | 281° |
| 2026-05-06 14:55 | 48.54644 | 14.14520 | 25924 ft | 442 kts | 281° |
| 2026-05-06 14:56 | 48.55505 | 14.10056 | 26198 ft | 443 kts | 281° |
| 2026-05-06 14:56 | 48.56367 | 14.05584 | 26474 ft | 444 kts | 280° |
| 2026-05-06 14:56 | 48.57228 | 14.01100 | 26735 ft | 445 kts | 280° |
| 2026-05-06 14:56 | 48.58091 | 13.96600 | 27037 ft | 447 kts | 280° |
| 2026-05-06 14:57 | 48.58953 | 13.92092 | 27304 ft | 448 kts | 280° |
| 2026-05-06 14:57 | 48.59816 | 13.87567 | 27559 ft | 449 kts | 280° |
| 2026-05-06 14:57 | 48.60668 | 13.83095 | 27848 ft | 449 kts | 280° |
| 2026-05-06 14:57 | 48.61531 | 13.78546 | 28108 ft | 451 kts | 280° |
| 2026-05-06 14:58 | 48.62393 | 13.73987 | 28358 ft | 452 kts | 280° |
| 2026-05-06 14:58 | 48.63256 | 13.69420 | 28642 ft | 452 kts | 279° |
| 2026-05-06 14:58 | 48.64198 | 13.64863 | 28888 ft | 457 kts | 284° |
| 2026-05-06 14:58 | 48.65488 | 13.60427 | 29110 ft | 466 kts | 291° |
| 2026-05-06 14:59 | 48.67201 | 13.56216 | 29335 ft | 476 kts | 299° |
| 2026-05-06 14:59 | 48.69350 | 13.52331 | 29505 ft | 486 kts | 306° |
| 2026-05-06 14:59 | 48.71695 | 13.48622 | 29744 ft | 489 kts | 307° |
| 2026-05-06 14:59 | 48.74104 | 13.44984 | 30042 ft | 489 kts | 308° |
| 2026-05-06 15:00 | 48.76527 | 13.41394 | 30434 ft | 486 kts | 308° |
| 2026-05-06 15:00 | 48.78941 | 13.37825 | 30757 ft | 484 kts | 308° |
| 2026-05-06 15:00 | 48.81346 | 13.34250 | 31072 ft | 483 kts | 308° |
| 2026-05-06 15:00 | 48.83735 | 13.30675 | 31393 ft | 482 kts | 308° |
| 2026-05-06 15:01 | 48.86113 | 13.27095 | 31682 ft | 481 kts | 307° |
| 2026-05-06 15:01 | 48.88478 | 13.23517 | 31972 ft | 480 kts | 307° |
| 2026-05-06 15:01 | 48.90843 | 13.19923 | 32178 ft | 481 kts | 308° |
| 2026-05-06 15:01 | 48.93209 | 13.16322 | 32409 ft | 481 kts | 308° |
| 2026-05-06 15:02 | 48.95570 | 13.12728 | 32709 ft | 480 kts | 308° |
| 2026-05-06 15:02 | 48.97924 | 13.09141 | 33005 ft | 479 kts | 307° |
| 2026-05-06 15:02 | 49.00273 | 13.05557 | 33285 ft | 477 kts | 307° |
| 2026-05-06 15:02 | 49.02613 | 13.01981 | 33657 ft | 475 kts | 307° |
| 2026-05-06 15:03 | 49.04937 | 12.98428 | 33941 ft | 473 kts | 308° |
| 2026-05-06 15:03 | 49.07258 | 12.94871 | 34104 ft | 474 kts | 308° |
| 2026-05-06 15:03 | 49.09582 | 12.91300 | 34253 ft | 475 kts | 308° |
| 2026-05-06 15:03 | 49.11911 | 12.87718 | 34430 ft | 475 kts | 308° |
| 2026-05-06 15:04 | 49.14239 | 12.84133 | 34604 ft | 476 kts | 308° |
| 2026-05-06 15:04 | 49.16568 | 12.80542 | 34768 ft | 476 kts | 308° |
| 2026-05-06 15:04 | 49.18897 | 12.76947 | 34932 ft | 476 kts | 308° |
| 2026-05-06 15:04 | 49.21230 | 12.73341 | 35090 ft | 477 kts | 308° |
| 2026-05-06 15:05 | 49.23562 | 12.69732 | 35239 ft | 477 kts | 308° |
| 2026-05-06 15:05 | 49.25894 | 12.66120 | 35434 ft | 477 kts | 308° |
| 2026-05-06 15:05 | 49.28228 | 12.62496 | 35592 ft | 478 kts | 308° |
| 2026-05-06 15:05 | 49.30568 | 12.58879 | 35725 ft | 480 kts | 310° |
| 2026-05-06 15:06 | 49.33096 | 12.55563 | 35740 ft | 490 kts | 318° |
| 2026-05-06 15:06 | 49.36004 | 12.52737 | 35755 ft | 501 kts | 327° |
| 2026-05-06 15:06 | 49.39142 | 12.50380 | 35741 ft | 503 kts | 329° |
| 2026-05-06 15:07 | 49.45561 | 12.46012 | 35750 ft | 505 kts | 331° |
| 2026-05-06 15:07 | 49.52020 | 12.41763 | 35758 ft | 505 kts | 331° |
| 2026-05-06 15:08 | 49.58470 | 12.37473 | 35748 ft | 505 kts | 331° |
| 2026-05-06 15:08 | 49.64910 | 12.33137 | 35752 ft | 505 kts | 331° |
| 2026-05-06 15:09 | 49.71341 | 12.28781 | 35746 ft | 505 kts | 331° |
| 2026-05-06 15:09 | 49.77771 | 12.24413 | 35762 ft | 505 kts | 331° |
| 2026-05-06 15:10 | 49.84214 | 12.20024 | 35758 ft | 506 kts | 331° |
| 2026-05-06 15:10 | 49.90653 | 12.15627 | 35754 ft | 506 kts | 331° |
| 2026-05-06 15:11 | 49.97091 | 12.11220 | 35759 ft | 506 kts | 331° |
| 2026-05-06 15:11 | 50.03523 | 12.06802 | 35774 ft | 506 kts | 331° |
| 2026-05-06 15:12 | 50.09954 | 12.02372 | 35781 ft | 505 kts | 331° |
| 2026-05-06 15:12 | 50.16385 | 11.97928 | 35802 ft | 505 kts | 332° |
| 2026-05-06 15:13 | 50.22810 | 11.93477 | 35802 ft | 506 kts | 332° |
| 2026-05-06 15:13 | 50.29237 | 11.89011 | 35801 ft | 505 kts | 332° |
| 2026-05-06 15:14 | 50.35655 | 11.84538 | 35802 ft | 505 kts | 331° |
| 2026-05-06 15:14 | 50.42025 | 11.80085 | 35795 ft | 505 kts | 331° |
| 2026-05-06 15:15 | 50.48434 | 11.75591 | 35781 ft | 504 kts | 331° |
| 2026-05-06 15:15 | 50.54839 | 11.71088 | 35771 ft | 504 kts | 331° |
| 2026-05-06 15:16 | 50.61244 | 11.66571 | 35760 ft | 504 kts | 332° |
| 2026-05-06 15:16 | 50.67644 | 11.62043 | 35754 ft | 504 kts | 332° |
| 2026-05-06 15:17 | 50.74048 | 11.57497 | 35754 ft | 504 kts | 331° |
| 2026-05-06 15:17 | 50.80446 | 11.52944 | 35760 ft | 505 kts | 331° |
| 2026-05-06 15:18 | 50.86855 | 11.48366 | 35752 ft | 505 kts | 331° |
| 2026-05-06 15:18 | 50.93264 | 11.43776 | 35752 ft | 506 kts | 331° |
| 2026-05-06 15:19 | 50.99675 | 11.39172 | 35780 ft | 506 kts | 332° |
| 2026-05-06 15:19 | 51.06086 | 11.34553 | 35764 ft | 506 kts | 332° |
| 2026-05-06 15:20 | 51.12501 | 11.29917 | 35767 ft | 507 kts | 332° |
| 2026-05-06 15:20 | 51.18921 | 11.25263 | 35763 ft | 507 kts | 332° |
| 2026-05-06 15:21 | 51.25340 | 11.20596 | 35765 ft | 507 kts | 332° |
| 2026-05-06 15:21 | 51.31752 | 11.15920 | 35765 ft | 506 kts | 332° |
| 2026-05-06 15:22 | 51.38157 | 11.11234 | 35766 ft | 506 kts | 331° |
| 2026-05-06 15:22 | 51.44565 | 11.06531 | 35762 ft | 506 kts | 332° |
| 2026-05-06 15:23 | 51.50949 | 11.01832 | 35784 ft | 505 kts | 332° |
| 2026-05-06 15:23 | 51.57321 | 10.97127 | 35769 ft | 504 kts | 332° |
| 2026-05-06 15:24 | 51.63691 | 10.92409 | 35769 ft | 503 kts | 332° |
| 2026-05-06 15:24 | 51.70071 | 10.87748 | 35774 ft | 505 kts | 334° |
| 2026-05-06 15:25 | 51.76653 | 10.83747 | 35773 ft | 506 kts | 337° |
| 2026-05-06 15:25 | 51.83288 | 10.79918 | 35776 ft | 507 kts | 336° |
| 2026-05-06 15:26 | 51.89909 | 10.75977 | 35791 ft | 507 kts | 336° |
| 2026-05-06 15:26 | 51.96506 | 10.71956 | 35782 ft | 507 kts | 336° |
| 2026-05-06 15:27 | 52.03097 | 10.67902 | 35785 ft | 506 kts | 336° |
| 2026-05-06 15:27 | 52.09678 | 10.63844 | 35795 ft | 506 kts | 336° |
| 2026-05-06 15:28 | 52.16255 | 10.59780 | 35797 ft | 505 kts | 336° |
| 2026-05-06 15:28 | 52.22784 | 10.55734 | 35802 ft | 505 kts | 336° |
| 2026-05-06 15:29 | 52.29357 | 10.51648 | 35801 ft | 505 kts | 335° |
| 2026-05-06 15:29 | 52.35923 | 10.47554 | 35804 ft | 505 kts | 336° |
| 2026-05-06 15:30 | 52.42485 | 10.43450 | 35802 ft | 503 kts | 336° |
| 2026-05-06 15:30 | 52.49016 | 10.39352 | 35808 ft | 502 kts | 336° |
| 2026-05-06 15:31 | 52.55543 | 10.35240 | 35824 ft | 502 kts | 336° |
| 2026-05-06 15:31 | 52.60965 | 10.31816 | 35805 ft | 502 kts | 336° |
| 2026-05-06 15:32 | 52.70753 | 10.25612 | 35837 ft | 502 kts | 336° |
| 2026-05-06 15:32 | 52.77272 | 10.21463 | 35819 ft | 502 kts | 336° |
| 2026-05-06 15:33 | 52.83792 | 10.17300 | 35826 ft | 502 kts | 336° |
| 2026-05-06 15:33 | 52.90313 | 10.13123 | 35838 ft | 502 kts | 336° |
| 2026-05-06 15:34 | 52.96805 | 10.08952 | 35828 ft | 499 kts | 336° |
| 2026-05-06 15:34 | 53.03277 | 10.04781 | 35833 ft | 499 kts | 336° |
| 2026-05-06 15:35 | 53.09752 | 10.00592 | 35838 ft | 499 kts | 336° |
| 2026-05-06 15:35 | 53.16219 | 9.96396 | 35847 ft | 499 kts | 336° |
| 2026-05-06 15:36 | 53.22684 | 9.92187 | 35854 ft | 499 kts | 336° |
| 2026-05-06 15:36 | 53.29150 | 9.87965 | 35862 ft | 499 kts | 336° |
| 2026-05-06 15:37 | 53.35614 | 9.83729 | 35873 ft | 499 kts | 336° |
| 2026-05-06 15:37 | 53.42068 | 9.79488 | 35866 ft | 498 kts | 336° |
| 2026-05-06 15:38 | 53.48520 | 9.75233 | 35884 ft | 498 kts | 336° |
| 2026-05-06 15:38 | 53.54968 | 9.70967 | 35885 ft | 498 kts | 336° |
| 2026-05-06 15:39 | 53.61369 | 9.66718 | 35886 ft | 498 kts | 336° |
| 2026-05-06 15:39 | 53.67814 | 9.62426 | 35881 ft | 498 kts | 336° |
| 2026-05-06 15:40 | 53.74262 | 9.58117 | 35883 ft | 498 kts | 336° |
| 2026-05-06 15:40 | 53.80704 | 9.53799 | 35877 ft | 498 kts | 335° |
| 2026-05-06 15:41 | 53.87146 | 9.49466 | 35886 ft | 498 kts | 335° |
| 2026-05-06 15:41 | 53.93582 | 9.45123 | 35876 ft | 497 kts | 335° |
| 2026-05-06 15:42 | 54.00006 | 9.40774 | 35880 ft | 497 kts | 335° |
| 2026-05-06 15:42 | 54.06423 | 9.36414 | 35881 ft | 496 kts | 335° |
| 2026-05-06 15:43 | 54.12837 | 9.32042 | 35881 ft | 496 kts | 335° |
| 2026-05-06 15:43 | 54.19252 | 9.27655 | 35888 ft | 497 kts | 335° |
| 2026-05-06 15:44 | 54.25665 | 9.23254 | 35889 ft | 497 kts | 335° |
| 2026-05-06 15:44 | 54.32083 | 9.18835 | 35900 ft | 497 kts | 335° |
| 2026-05-06 15:45 | 54.38501 | 9.14401 | 35900 ft | 497 kts | 335° |
| 2026-05-06 15:45 | 54.44911 | 9.09959 | 35906 ft | 496 kts | 335° |
| 2026-05-06 15:46 | 54.51303 | 9.05513 | 35903 ft | 495 kts | 335° |
| 2026-05-06 15:46 | 54.57643 | 9.01089 | 35905 ft | 495 kts | 335° |
| 2026-05-06 15:47 | 54.64020 | 8.96622 | 35906 ft | 495 kts | 335° |
| 2026-05-06 15:47 | 54.70379 | 8.92155 | 35909 ft | 494 kts | 334° |
| 2026-05-06 15:48 | 54.76748 | 8.87666 | 35909 ft | 494 kts | 334° |
| 2026-05-06 15:48 | 54.83111 | 8.83164 | 35908 ft | 494 kts | 334° |
| 2026-05-06 15:49 | 54.89474 | 8.78647 | 35911 ft | 494 kts | 334° |
| 2026-05-06 15:49 | 54.95857 | 8.74224 | 35941 ft | 495 kts | 335° |
| 2026-05-06 15:50 | 55.02286 | 8.69925 | 35913 ft | 496 kts | 335° |
| 2026-05-06 15:50 | 55.08723 | 8.65601 | 35917 ft | 496 kts | 335° |
| 2026-05-06 15:51 | 55.15155 | 8.61234 | 35916 ft | 496 kts | 335° |
| 2026-05-06 15:51 | 55.21577 | 8.56841 | 35925 ft | 496 kts | 335° |
| 2026-05-06 15:52 | 55.27999 | 8.52433 | 35929 ft | 496 kts | 334° |
| 2026-05-06 15:52 | 55.34424 | 8.48007 | 35933 ft | 496 kts | 334° |
| 2026-05-06 15:53 | 55.40850 | 8.43567 | 35933 ft | 496 kts | 334° |
| 2026-05-06 15:53 | 55.47273 | 8.39113 | 35932 ft | 496 kts | 334° |
| 2026-05-06 15:54 | 55.53690 | 8.34643 | 35935 ft | 496 kts | 334° |
| 2026-05-06 15:54 | 55.60010 | 8.29825 | 35933 ft | 491 kts | 326° |
| 2026-05-06 15:55 | 55.65695 | 8.23262 | 35957 ft | 487 kts | 321° |
| 2026-05-06 15:55 | 55.71221 | 8.16309 | 35954 ft | 487 kts | 320° |
| 2026-05-06 15:56 | 55.76711 | 8.09272 | 35962 ft | 487 kts | 320° |
| 2026-05-06 15:56 | 55.82204 | 8.02227 | 35958 ft | 487 kts | 320° |
| 2026-05-06 15:57 | 55.87696 | 7.95185 | 35965 ft | 487 kts | 320° |
| 2026-05-06 15:57 | 55.93184 | 7.88132 | 35971 ft | 486 kts | 320° |
| 2026-05-06 15:58 | 55.98663 | 7.81067 | 35972 ft | 486 kts | 320° |
| 2026-05-06 15:58 | 56.04135 | 7.73983 | 35969 ft | 486 kts | 320° |
| 2026-05-06 15:59 | 56.09600 | 7.66884 | 35978 ft | 485 kts | 319° |
| 2026-05-06 15:59 | 56.15052 | 7.59775 | 35980 ft | 484 kts | 319° |
| 2026-05-06 16:00 | 56.20497 | 7.52649 | 35991 ft | 484 kts | 319° |
| 2026-05-06 16:00 | 56.25900 | 7.45552 | 35990 ft | 484 kts | 319° |
| 2026-05-06 16:01 | 56.31326 | 7.38403 | 35995 ft | 483 kts | 319° |
| 2026-05-06 16:01 | 56.36740 | 7.31241 | 36008 ft | 483 kts | 319° |
| 2026-05-06 16:02 | 56.42150 | 7.24059 | 35998 ft | 482 kts | 319° |
| 2026-05-06 16:02 | 56.47550 | 7.16863 | 35997 ft | 482 kts | 319° |
| 2026-05-06 16:03 | 56.52946 | 7.09647 | 36003 ft | 482 kts | 319° |
| 2026-05-06 16:03 | 56.58339 | 7.02410 | 36003 ft | 482 kts | 318° |
| 2026-05-06 16:04 | 56.63725 | 6.95156 | 36000 ft | 482 kts | 318° |
| 2026-05-06 16:04 | 56.69093 | 6.87902 | 36007 ft | 480 kts | 318° |
| 2026-05-06 16:05 | 56.74448 | 6.80636 | 36004 ft | 480 kts | 318° |
| 2026-05-06 16:05 | 56.79793 | 6.73357 | 36006 ft | 480 kts | 318° |
| 2026-05-06 16:06 | 56.85133 | 6.66058 | 36007 ft | 479 kts | 318° |
| 2026-05-06 16:06 | 56.90470 | 6.58737 | 36007 ft | 479 kts | 318° |
| 2026-05-06 16:07 | 56.95801 | 6.51398 | 36019 ft | 479 kts | 317° |
| 2026-05-06 16:07 | 57.01311 | 6.44460 | 36014 ft | 484 kts | 325° |
| 2026-05-06 16:08 | 57.07196 | 6.38452 | 36009 ft | 485 kts | 326° |
| 2026-05-06 16:08 | 57.13101 | 6.32623 | 36012 ft | 485 kts | 327° |
| 2026-05-06 16:09 | 57.19051 | 6.26760 | 36012 ft | 485 kts | 326° |
| 2026-05-06 16:09 | 57.24991 | 6.20864 | 36017 ft | 485 kts | 326° |
| 2026-05-06 16:10 | 57.30925 | 6.14939 | 36017 ft | 485 kts | 326° |
| 2026-05-06 16:10 | 57.36858 | 6.08989 | 36018 ft | 485 kts | 326° |
| 2026-05-06 16:11 | 57.42784 | 6.03024 | 36017 ft | 485 kts | 326° |
| 2026-05-06 16:11 | 57.48710 | 5.97037 | 36031 ft | 484 kts | 326° |
| 2026-05-06 16:12 | 57.54624 | 5.91043 | 36019 ft | 483 kts | 326° |
| 2026-05-06 16:12 | 57.60524 | 5.85039 | 36022 ft | 483 kts | 326° |
| 2026-05-06 16:13 | 57.66423 | 5.79012 | 36023 ft | 483 kts | 326° |
| 2026-05-06 16:13 | 57.72314 | 5.72972 | 36023 ft | 483 kts | 326° |
| 2026-05-06 16:14 | 57.78206 | 5.66907 | 36023 ft | 483 kts | 326° |
| 2026-05-06 16:14 | 57.84092 | 5.60828 | 36022 ft | 483 kts | 326° |
| 2026-05-06 16:15 | 57.89977 | 5.54726 | 36029 ft | 483 kts | 326° |
| 2026-05-06 16:15 | 57.95855 | 5.48607 | 36028 ft | 483 kts | 325° |
| 2026-05-06 16:16 | 58.01734 | 5.42465 | 36026 ft | 483 kts | 325° |
| 2026-05-06 16:16 | 58.07605 | 5.36308 | 36034 ft | 483 kts | 325° |
| 2026-05-06 16:17 | 58.13474 | 5.30130 | 36034 ft | 483 kts | 325° |
| 2026-05-06 16:17 | 58.19302 | 5.23970 | 36034 ft | 483 kts | 325° |
| 2026-05-06 16:18 | 58.25203 | 5.17710 | 36040 ft | 483 kts | 325° |
| 2026-05-06 16:18 | 58.31064 | 5.11468 | 36039 ft | 483 kts | 325° |
| 2026-05-06 16:19 | 58.36916 | 5.05214 | 36039 ft | 483 kts | 325° |
| 2026-05-06 16:19 | 58.42685 | 4.98863 | 36042 ft | 479 kts | 320° |
| 2026-05-06 16:20 | 58.47571 | 4.90574 | 36182 ft | 463 kts | 304° |
| 2026-05-06 16:20 | 58.49416 | 4.85597 | 36441 ft | 455 kts | 296° |
| 2026-05-06 16:20 | 58.50415 | 4.82006 | 36590 ft | 451 kts | 291° |
| 2026-05-06 16:21 | 58.51800 | 4.74566 | 36773 ft | 448 kts | 283° |
| 2026-05-06 16:21 | 58.52339 | 4.70674 | 36876 ft | 448 kts | 281° |
| 2026-05-06 16:21 | 58.53046 | 4.64879 | 36996 ft | 448 kts | 280° |
| 2026-05-06 16:21 | 58.53700 | 4.59050 | 37131 ft | 448 kts | 279° |
| 2026-05-06 16:22 | 58.54336 | 4.53217 | 37263 ft | 448 kts | 279° |
| 2026-05-06 16:22 | 58.54975 | 4.47368 | 37384 ft | 449 kts | 279° |
| 2026-05-06 16:22 | 58.55615 | 4.41596 | 37507 ft | 449 kts | 279° |
| 2026-05-06 16:22 | 58.56271 | 4.35744 | 37653 ft | 450 kts | 280° |
| 2026-05-06 16:23 | 58.56941 | 4.29813 | 37766 ft | 450 kts | 280° |
| 2026-05-06 16:23 | 58.57596 | 4.24024 | 37878 ft | 451 kts | 280° |
| 2026-05-06 16:23 | 58.58259 | 4.18152 | 37999 ft | 451 kts | 280° |
| 2026-05-06 16:23 | 58.58921 | 4.12275 | 38049 ft | 453 kts | 280° |
| 2026-05-06 16:24 | 58.60246 | 4.00407 | 38055 ft | 457 kts | 280° |
| 2026-05-06 16:24 | 58.61565 | 3.88476 | 38055 ft | 457 kts | 280° |
| 2026-05-06 16:25 | 58.62872 | 3.76546 | 38056 ft | 457 kts | 280° |
| 2026-05-06 16:25 | 58.64167 | 3.64611 | 38061 ft | 457 kts | 280° |
| 2026-05-06 16:26 | 58.65453 | 3.52641 | 38058 ft | 458 kts | 280° |
| 2026-05-06 16:26 | 58.66728 | 3.40670 | 38062 ft | 458 kts | 280° |
| 2026-05-06 16:27 | 58.67992 | 3.28686 | 38059 ft | 458 kts | 280° |
| 2026-05-06 16:27 | 58.69245 | 3.16694 | 38058 ft | 458 kts | 279° |
| 2026-05-06 16:28 | 58.70487 | 3.04690 | 38057 ft | 458 kts | 280° |
| 2026-05-06 16:28 | 58.71717 | 2.92683 | 38064 ft | 458 kts | 280° |
| 2026-05-06 16:29 | 58.72937 | 2.80662 | 38062 ft | 458 kts | 279° |
| 2026-05-06 16:29 | 58.74145 | 2.68643 | 38060 ft | 458 kts | 279° |
| 2026-05-06 16:30 | 58.75141 | 2.58639 | 38061 ft | 458 kts | 279° |
| 2026-05-06 16:30 | 58.76527 | 2.44564 | 38074 ft | 457 kts | 279° |
| 2026-05-06 16:31 | 58.77701 | 2.32521 | 38063 ft | 457 kts | 279° |
| 2026-05-06 16:31 | 58.78865 | 2.20460 | 38060 ft | 457 kts | 279° |
| 2026-05-06 16:32 | 58.80098 | 2.08426 | 38063 ft | 458 kts | 282° |
| 2026-05-06 16:32 | 58.81677 | 1.96525 | 38060 ft | 458 kts | 283° |
| 2026-05-06 16:33 | 58.83285 | 1.84715 | 38063 ft | 458 kts | 283° |
| 2026-05-06 16:34 | 58.85598 | 1.66856 | 38058 ft | 457 kts | 282° |
| 2026-05-06 16:34 | 58.87098 | 1.54923 | 38062 ft | 457 kts | 282° |
| 2026-05-06 16:35 | 58.88585 | 1.42987 | 38055 ft | 457 kts | 282° |
| 2026-05-06 16:35 | 58.90063 | 1.31041 | 38061 ft | 457 kts | 282° |
| 2026-05-06 16:36 | 58.91531 | 1.19086 | 38055 ft | 457 kts | 282° |
| 2026-05-06 16:36 | 58.92987 | 1.07132 | 38057 ft | 456 kts | 282° |
| 2026-05-06 16:37 | 58.94432 | 0.95160 | 38053 ft | 456 kts | 282° |
| 2026-05-06 16:37 | 58.95866 | 0.83183 | 38055 ft | 456 kts | 282° |
| 2026-05-06 16:38 | 58.97289 | 0.71200 | 38058 ft | 456 kts | 282° |
| 2026-05-06 16:38 | 58.98700 | 0.59203 | 38061 ft | 456 kts | 282° |
| 2026-05-06 16:39 | 59.00101 | 0.47198 | 38052 ft | 456 kts | 282° |
| 2026-05-06 16:39 | 59.01490 | 0.35190 | 38050 ft | 456 kts | 282° |
| 2026-05-06 16:40 | 59.02866 | 0.23178 | 38069 ft | 456 kts | 282° |
| 2026-05-06 16:40 | 59.04234 | 0.11140 | 38044 ft | 457 kts | 282° |
| 2026-05-06 16:41 | 59.05592 | -0.00914 | 38055 ft | 457 kts | 281° |
| 2026-05-06 16:41 | 59.06935 | -0.12949 | 38050 ft | 454 kts | 281° |
| 2026-05-06 16:42 | 59.08251 | -0.24855 | 38049 ft | 453 kts | 281° |
| 2026-05-06 16:42 | 59.09564 | -0.36847 | 38048 ft | 453 kts | 281° |
| 2026-05-06 16:43 | 59.10867 | -0.48847 | 38047 ft | 453 kts | 281° |
| 2026-05-06 16:43 | 59.12159 | -0.60858 | 38048 ft | 453 kts | 281° |
| 2026-05-06 16:44 | 59.13439 | -0.72872 | 38052 ft | 453 kts | 281° |
| 2026-05-06 16:44 | 59.14707 | -0.84890 | 38043 ft | 453 kts | 281° |
| 2026-05-06 16:45 | 59.15965 | -0.96926 | 38043 ft | 453 kts | 281° |
| 2026-05-06 16:45 | 59.17212 | -1.08967 | 38044 ft | 453 kts | 280° |
| 2026-05-06 16:46 | 59.18447 | -1.21013 | 38044 ft | 453 kts | 280° |
| 2026-05-06 16:46 | 59.19671 | -1.33060 | 38043 ft | 453 kts | 280° |
| 2026-05-06 16:47 | 59.20885 | -1.45143 | 38054 ft | 454 kts | 280° |
| 2026-05-06 16:47 | 59.22088 | -1.57226 | 38041 ft | 454 kts | 280° |
| 2026-05-06 16:48 | 59.23280 | -1.69322 | 38038 ft | 454 kts | 280° |
| 2026-05-06 16:48 | 59.24461 | -1.81428 | 38047 ft | 454 kts | 280° |
| 2026-05-06 16:49 | 59.25630 | -1.93538 | 38037 ft | 454 kts | 280° |
| 2026-05-06 16:49 | 59.26790 | -2.05669 | 38053 ft | 454 kts | 279° |
| 2026-05-06 16:50 | 59.27939 | -2.17822 | 38051 ft | 454 kts | 279° |
| 2026-05-06 16:50 | 59.29076 | -2.29972 | 38050 ft | 454 kts | 279° |
| 2026-05-06 16:51 | 59.30202 | -2.42137 | 38041 ft | 454 kts | 279° |
| 2026-05-06 16:51 | 59.31316 | -2.54304 | 38037 ft | 454 kts | 279° |
| 2026-05-06 16:52 | 59.32417 | -2.66458 | 38038 ft | 452 kts | 279° |
| 2026-05-06 16:52 | 59.33496 | -2.78495 | 38037 ft | 451 kts | 279° |
| 2026-05-06 16:53 | 59.34576 | -2.90688 | 38034 ft | 451 kts | 279° |
| 2026-05-06 16:53 | 59.35638 | -3.02801 | 38034 ft | 451 kts | 279° |
| 2026-05-06 16:54 | 59.36682 | -3.14847 | 38030 ft | 451 kts | 279° |
| 2026-05-06 16:54 | 59.37720 | -3.26970 | 38030 ft | 451 kts | 279° |
| 2026-05-06 16:55 | 59.38748 | -3.39106 | 38033 ft | 451 kts | 278° |
| 2026-05-06 16:55 | 59.39765 | -3.51248 | 38031 ft | 451 kts | 278° |
| 2026-05-06 16:56 | 59.40771 | -3.63402 | 38028 ft | 451 kts | 278° |
| 2026-05-06 16:56 | 59.41765 | -3.75561 | 38029 ft | 451 kts | 278° |
| 2026-05-06 16:57 | 59.42748 | -3.87727 | 38027 ft | 451 kts | 278° |
| 2026-05-06 16:57 | 59.44042 | -3.99787 | 38028 ft | 452 kts | 284° |
| 2026-05-06 16:58 | 59.45729 | -4.11713 | 38028 ft | 453 kts | 285° |
| 2026-05-06 16:58 | 59.47466 | -4.23617 | 38029 ft | 453 kts | 285° |
| 2026-05-06 16:59 | 59.49197 | -4.35543 | 38029 ft | 453 kts | 284° |
| 2026-05-06 16:59 | 59.50907 | -4.47472 | 38029 ft | 453 kts | 284° |
| 2026-05-06 17:00 | 59.52602 | -4.59421 | 38045 ft | 453 kts | 284° |
| 2026-05-06 17:00 | 59.54289 | -4.71411 | 38028 ft | 454 kts | 284° |
| 2026-05-06 17:01 | 59.55967 | -4.83418 | 38024 ft | 455 kts | 284° |
| 2026-05-06 17:01 | 59.57636 | -4.95448 | 38023 ft | 455 kts | 284° |
| 2026-05-06 17:02 | 59.59281 | -5.07405 | 38023 ft | 455 kts | 284° |
| 2026-05-06 17:02 | 59.60928 | -5.19464 | 38023 ft | 455 kts | 284° |
| 2026-05-06 17:03 | 59.62563 | -5.31523 | 38017 ft | 454 kts | 284° |
| 2026-05-06 17:03 | 59.64187 | -5.43598 | 38018 ft | 454 kts | 284° |
| 2026-05-06 17:04 | 59.65799 | -5.55675 | 38019 ft | 454 kts | 284° |
| 2026-05-06 17:04 | 59.67399 | -5.67766 | 38018 ft | 454 kts | 284° |
| 2026-05-06 17:05 | 59.68989 | -5.79866 | 38015 ft | 454 kts | 284° |
| 2026-05-06 17:05 | 59.70566 | -5.91972 | 38006 ft | 454 kts | 284° |
| 2026-05-06 17:06 | 59.72130 | -6.04076 | 38011 ft | 453 kts | 284° |
| 2026-05-06 17:06 | 59.73680 | -6.16160 | 38009 ft | 452 kts | 284° |
| 2026-05-06 17:07 | 59.75221 | -6.28275 | 38011 ft | 454 kts | 283° |
| 2026-05-06 17:07 | 59.76760 | -6.40471 | 38004 ft | 456 kts | 283° |
| 2026-05-06 17:08 | 59.78290 | -6.52702 | 38006 ft | 456 kts | 283° |
| 2026-05-06 17:08 | 59.79806 | -6.64927 | 38004 ft | 456 kts | 283° |
| 2026-05-06 17:09 | 59.81055 | -6.75073 | 38001 ft | 454 kts | 283° |
| 2026-05-06 17:09 | 59.82545 | -6.87266 | 38003 ft | 454 kts | 283° |
| 2026-05-06 17:10 | 59.84023 | -6.99468 | 38003 ft | 454 kts | 283° |
| 2026-05-06 17:10 | 59.85489 | -7.11679 | 38000 ft | 454 kts | 283° |
| 2026-05-06 17:11 | 59.86945 | -7.23901 | 37996 ft | 454 kts | 283° |
| 2026-05-06 17:11 | 59.88388 | -7.36126 | 38000 ft | 454 kts | 283° |
| 2026-05-06 17:12 | 59.89820 | -7.48366 | 37992 ft | 454 kts | 283° |
| 2026-05-06 17:12 | 59.91240 | -7.60615 | 37992 ft | 454 kts | 282° |
| 2026-05-06 17:13 | 59.92649 | -7.72866 | 37985 ft | 454 kts | 282° |
| 2026-05-06 17:13 | 59.94048 | -7.85144 | 38025 ft | 454 kts | 282° |
| 2026-05-06 17:14 | 59.95436 | -7.97437 | 37973 ft | 455 kts | 282° |
| 2026-05-06 17:14 | 59.96810 | -8.09720 | 37977 ft | 452 kts | 282° |
| 2026-05-06 17:15 | 59.98169 | -8.21980 | 37974 ft | 452 kts | 282° |
| 2026-05-06 17:15 | 59.99515 | -8.34232 | 37966 ft | 452 kts | 282° |
| 2026-05-06 17:16 | 60.00850 | -8.46500 | 37966 ft | 452 kts | 282° |
| 2026-05-06 17:16 | 60.01830 | -8.58796 | 37958 ft | 451 kts | 272° |
| 2026-05-06 17:17 | 60.01880 | -8.71346 | 37959 ft | 452 kts | 269° |
| 2026-05-06 17:17 | 60.01753 | -8.83904 | 37949 ft | 452 kts | 269° |
| 2026-05-06 17:18 | 60.01591 | -8.96552 | 37952 ft | 452 kts | 269° |
| 2026-05-06 17:18 | 60.01433 | -9.09015 | 37938 ft | 452 kts | 269° |
| 2026-05-06 17:19 | 60.01273 | -9.21569 | 37936 ft | 452 kts | 269° |
| 2026-05-06 17:19 | 60.01102 | -9.34124 | 37918 ft | 452 kts | 269° |
| 2026-05-06 17:20 | 60.00919 | -9.46702 | 37920 ft | 453 kts | 269° |
| 2026-05-06 17:20 | 60.00724 | -9.59273 | 37903 ft | 453 kts | 269° |
| 2026-05-06 17:21 | 60.00516 | -9.71856 | 37900 ft | 453 kts | 269° |
| 2026-05-06 17:21 | 60.00297 | -9.84435 | 37887 ft | 453 kts | 268° |
| 2026-05-06 17:22 | 60.00407 | -9.96989 | 37887 ft | 452 kts | 277° |
| 2026-05-06 17:22 | 60.02071 | -10.09066 | 37897 ft | 452 kts | 290° |
| 2026-05-06 17:23 | 60.04556 | -10.20622 | 37878 ft | 452 kts | 292° |
| 2026-05-06 17:23 | 60.07152 | -10.32098 | 37885 ft | 453 kts | 292° |
| 2026-05-06 17:24 | 60.09747 | -10.43660 | 37862 ft | 457 kts | 292° |
| 2026-05-06 17:24 | 60.12322 | -10.55307 | 37872 ft | 457 kts | 292° |
| 2026-05-06 17:25 | 60.14875 | -10.66966 | 37873 ft | 456 kts | 292° |
| 2026-05-06 17:25 | 60.17418 | -10.78650 | 37861 ft | 457 kts | 291° |
| 2026-05-06 17:26 | 60.19957 | -10.90381 | 37869 ft | 458 kts | 291° |
| 2026-05-06 17:26 | 60.22488 | -11.02133 | 37857 ft | 458 kts | 291° |
| 2026-05-06 17:27 | 60.24992 | -11.13826 | 37856 ft | 458 kts | 291° |
| 2026-05-06 17:27 | 60.27503 | -11.25621 | 37891 ft | 458 kts | 291° |
| 2026-05-06 17:28 | 60.30006 | -11.37443 | 37851 ft | 458 kts | 291° |
| 2026-05-06 17:28 | 60.32486 | -11.49223 | 37844 ft | 454 kts | 291° |
| 2026-05-06 17:29 | 60.34931 | -11.60908 | 37850 ft | 451 kts | 291° |
| 2026-05-06 17:29 | 60.37378 | -11.72674 | 37848 ft | 457 kts | 291° |
| 2026-05-06 17:30 | 60.39826 | -11.84506 | 37847 ft | 455 kts | 291° |
| 2026-05-06 17:30 | 60.42270 | -11.96391 | 37837 ft | 461 kts | 291° |
| 2026-05-06 17:31 | 60.44723 | -12.08377 | 37855 ft | 459 kts | 290° |
| 2026-05-06 17:31 | 60.47143 | -12.20275 | 37855 ft | 456 kts | 290° |
| 2026-05-06 17:32 | 60.49549 | -12.32183 | 37834 ft | 455 kts | 290° |
| 2026-05-06 17:32 | 60.51932 | -12.44038 | 37838 ft | 452 kts | 290° |
| 2026-05-06 17:33 | 60.54289 | -12.55847 | 37842 ft | 453 kts | 290° |
| 2026-05-06 17:33 | 60.56654 | -12.67763 | 37842 ft | 454 kts | 290° |
| 2026-05-06 17:34 | 60.59018 | -12.79745 | 37843 ft | 459 kts | 290° |
| 2026-05-06 17:34 | 60.61384 | -12.91798 | 37831 ft | 462 kts | 290° |
| 2026-05-06 17:35 | 60.63736 | -13.03841 | 37837 ft | 455 kts | 290° |
| 2026-05-06 17:35 | 60.66068 | -13.15858 | 37833 ft | 452 kts | 289° |
| 2026-05-06 17:36 | 60.69479 | -13.33612 | 37835 ft | 451 kts | 290° |
| 2026-05-06 17:36 | 60.71768 | -13.45607 | 37837 ft | 455 kts | 289° |
| 2026-05-06 17:37 | 60.74061 | -13.57698 | 37831 ft | 459 kts | 290° |
| 2026-05-06 17:37 | 60.76361 | -13.69893 | 37852 ft | 461 kts | 290° |
| 2026-05-06 17:38 | 60.78651 | -13.82107 | 37834 ft | 457 kts | 289° |
| 2026-05-06 17:38 | 60.80923 | -13.94299 | 37834 ft | 458 kts | 289° |
| 2026-05-06 17:39 | 60.83158 | -14.06363 | 37832 ft | 448 kts | 289° |
| 2026-05-06 17:39 | 60.85349 | -14.18293 | 37853 ft | 453 kts | 289° |
| 2026-05-06 17:40 | 60.87569 | -14.30438 | 37845 ft | 455 kts | 289° |
| 2026-05-06 17:40 | 60.89797 | -14.42712 | 37841 ft | 462 kts | 289° |
| 2026-05-06 17:41 | 60.92032 | -14.55084 | 37854 ft | 458 kts | 289° |
| 2026-05-06 17:41 | 60.94236 | -14.67372 | 37851 ft | 458 kts | 289° |
| 2026-05-06 17:42 | 60.96419 | -14.79631 | 37847 ft | 455 kts | 288° |
| 2026-05-06 17:42 | 60.98575 | -14.91825 | 37860 ft | 454 kts | 289° |
| 2026-05-06 17:43 | 60.99988 | -15.04478 | 37853 ft | 456 kts | 274° |
| 2026-05-06 17:43 | 61.00381 | -15.17567 | 37850 ft | 458 kts | 272° |
| 2026-05-06 17:44 | 61.00584 | -15.30596 | 37843 ft | 455 kts | 271° |
| 2026-05-06 17:44 | 61.00759 | -15.43678 | 37837 ft | 458 kts | 272° |
| 2026-05-06 17:45 | 61.00940 | -15.56713 | 37850 ft | 453 kts | 272° |
| 2026-05-06 17:45 | 61.01119 | -15.69756 | 37860 ft | 458 kts | 272° |
| 2026-05-06 17:46 | 61.01289 | -15.82933 | 37846 ft | 460 kts | 272° |
| 2026-05-06 17:46 | 61.01447 | -15.96162 | 37859 ft | 464 kts | 271° |
| 2026-05-06 17:47 | 61.01591 | -16.09432 | 37842 ft | 460 kts | 272° |
| 2026-05-06 17:47 | 61.01722 | -16.22620 | 37853 ft | 462 kts | 271° |
| 2026-05-06 17:48 | 61.01840 | -16.35879 | 37849 ft | 460 kts | 271° |
| 2026-05-06 17:48 | 61.01945 | -16.49051 | 37857 ft | 461 kts | 271° |
| 2026-05-06 17:49 | 61.02038 | -16.62225 | 37856 ft | 462 kts | 271° |
| 2026-05-06 17:49 | 61.02117 | -16.75413 | 37875 ft | 460 kts | 271° |
| 2026-05-06 17:50 | 61.02183 | -16.88658 | 37880 ft | 463 kts | 271° |
| 2026-05-06 17:50 | 61.02236 | -17.01874 | 37876 ft | 460 kts | 271° |
| 2026-05-06 17:51 | 61.02277 | -17.15123 | 37881 ft | 463 kts | 271° |
| 2026-05-06 17:51 | 61.02304 | -17.28331 | 37883 ft | 460 kts | 271° |
| 2026-05-06 17:52 | 61.02320 | -17.41577 | 37882 ft | 464 kts | 271° |
| 2026-05-06 17:52 | 61.02321 | -17.54819 | 37881 ft | 460 kts | 271° |
| 2026-05-06 17:53 | 61.02310 | -17.68069 | 37901 ft | 464 kts | 271° |
| 2026-05-06 17:53 | 61.02285 | -17.81310 | 37914 ft | 460 kts | 271° |
| 2026-05-06 17:54 | 61.02249 | -17.94569 | 37901 ft | 464 kts | 270° |
| 2026-05-06 17:54 | 61.02198 | -18.07819 | 37920 ft | 460 kts | 271° |
| 2026-05-06 17:55 | 61.02135 | -18.21091 | 37909 ft | 466 kts | 270° |
| 2026-05-06 17:55 | 61.02059 | -18.34428 | 37921 ft | 463 kts | 271° |
| 2026-05-06 17:56 | 61.01969 | -18.47736 | 37932 ft | 466 kts | 270° |
| 2026-05-06 17:56 | 61.01865 | -18.61045 | 37942 ft | 462 kts | 270° |
| 2026-05-06 17:57 | 61.01750 | -18.74252 | 37934 ft | 466 kts | 270° |
| 2026-05-06 17:57 | 61.01621 | -18.87532 | 37948 ft | 461 kts | 270° |
| 2026-05-06 17:58 | 61.01480 | -19.00798 | 37930 ft | 465 kts | 270° |
| 2026-05-06 17:58 | 61.01325 | -19.14089 | 37951 ft | 462 kts | 270° |
| 2026-05-06 17:59 | 61.01158 | -19.27398 | 37942 ft | 466 kts | 270° |
| 2026-05-06 17:59 | 61.00975 | -19.40723 | 37980 ft | 464 kts | 270° |
| 2026-05-06 18:00 | 61.00815 | -19.51788 | 37976 ft | 466 kts | 269° |
| 2026-05-06 18:00 | 61.00609 | -19.65096 | 37976 ft | 462 kts | 270° |
| 2026-05-06 18:01 | 61.00390 | -19.78391 | 37975 ft | 466 kts | 269° |
| 2026-05-06 18:01 | 61.00157 | -19.91718 | 37982 ft | 464 kts | 270° |
| 2026-05-06 18:02 | 61.00216 | -20.05041 | 37979 ft | 467 kts | 274° |
| 2026-05-06 18:02 | 61.00649 | -20.18346 | 37980 ft | 463 kts | 275° |
| 2026-05-06 18:03 | 61.01130 | -20.31625 | 38015 ft | 467 kts | 276° |
| 2026-05-06 18:03 | 61.01600 | -20.45008 | 37992 ft | 467 kts | 276° |
| 2026-05-06 18:04 | 61.02048 | -20.58314 | 38022 ft | 466 kts | 276° |
| 2026-05-06 18:04 | 61.02479 | -20.71715 | 38015 ft | 469 kts | 275° |
| 2026-05-06 18:05 | 61.02894 | -20.85066 | 38018 ft | 466 kts | 276° |
| 2026-05-06 18:05 | 61.03299 | -20.98450 | 38031 ft | 469 kts | 275° |
| 2026-05-06 18:06 | 61.03690 | -21.11843 | 38037 ft | 466 kts | 275° |
| 2026-05-06 18:06 | 61.04068 | -21.25226 | 38047 ft | 469 kts | 275° |
| 2026-05-06 18:07 | 61.04432 | -21.38554 | 38035 ft | 466 kts | 275° |
| 2026-05-06 18:07 | 61.04783 | -21.51905 | 38066 ft | 467 kts | 275° |
| 2026-05-06 18:08 | 61.05121 | -21.65338 | 38060 ft | 468 kts | 275° |
| 2026-05-06 18:08 | 61.05445 | -21.78698 | 38054 ft | 466 kts | 274° |
| 2026-05-06 18:09 | 61.05759 | -21.92140 | 38070 ft | 470 kts | 275° |
| 2026-05-06 18:09 | 61.06060 | -22.05614 | 38068 ft | 469 kts | 274° |
| 2026-05-06 18:10 | 61.06348 | -22.19115 | 38080 ft | 472 kts | 274° |
| 2026-05-06 18:10 | 61.06620 | -22.32602 | 38088 ft | 468 kts | 275° |
| 2026-05-06 18:11 | 61.06880 | -22.46080 | 38095 ft | 472 kts | 275° |
| 2026-05-06 18:11 | 61.07129 | -22.59598 | 38086 ft | 469 kts | 274° |
| 2026-05-06 18:12 | 61.07361 | -22.73079 | 38089 ft | 471 kts | 274° |
| 2026-05-06 18:12 | 61.07582 | -22.86630 | 38117 ft | 472 kts | 274° |
| 2026-05-06 18:13 | 61.07789 | -23.00164 | 38114 ft | 472 kts | 273° |
| 2026-05-06 18:13 | 61.07982 | -23.13747 | 38113 ft | 472 kts | 274° |
| 2026-05-06 18:14 | 61.08162 | -23.27253 | 38116 ft | 471 kts | 273° |
| 2026-05-06 18:14 | 61.08327 | -23.40813 | 38126 ft | 472 kts | 274° |
| 2026-05-06 18:15 | 61.08480 | -23.54330 | 38133 ft | 472 kts | 273° |
| 2026-05-06 18:15 | 61.08621 | -23.67963 | 38139 ft | 476 kts | 274° |
| 2026-05-06 18:16 | 61.08747 | -23.81620 | 38139 ft | 475 kts | 273° |
| 2026-05-06 18:16 | 61.08859 | -23.95298 | 38158 ft | 476 kts | 273° |
| 2026-05-06 18:17 | 61.08956 | -24.08958 | 38140 ft | 475 kts | 273° |
| 2026-05-06 18:17 | 61.09041 | -24.22629 | 38157 ft | 476 kts | 273° |
| 2026-05-06 18:18 | 61.09113 | -24.36289 | 38161 ft | 475 kts | 272° |
| 2026-05-06 18:18 | 61.09171 | -24.49878 | 38152 ft | 476 kts | 273° |
| 2026-05-06 18:19 | 61.09214 | -24.63556 | 38158 ft | 476 kts | 272° |
| 2026-05-06 18:19 | 61.09244 | -24.77257 | 38167 ft | 477 kts | 273° |
| 2026-05-06 18:20 | 61.09260 | -24.90946 | 38180 ft | 476 kts | 272° |
| 2026-05-06 18:20 | 61.09262 | -25.04639 | 38173 ft | 477 kts | 272° |
| 2026-05-06 18:21 | 61.09250 | -25.18323 | 38182 ft | 477 kts | 272° |
| 2026-05-06 18:21 | 61.09225 | -25.32078 | 38188 ft | 479 kts | 272° |
| 2026-05-06 18:22 | 61.09185 | -25.45840 | 38193 ft | 479 kts | 272° |
| 2026-05-06 18:22 | 61.09132 | -25.59621 | 38205 ft | 479 kts | 272° |
| 2026-05-06 18:23 | 61.09064 | -25.73381 | 38199 ft | 479 kts | 271° |
| 2026-05-06 18:23 | 61.08982 | -25.87154 | 38201 ft | 479 kts | 272° |
| 2026-05-06 18:24 | 61.08886 | -26.00918 | 38202 ft | 479 kts | 271° |
| 2026-05-06 18:24 | 61.08777 | -26.14689 | 38218 ft | 479 kts | 271° |
| 2026-05-06 18:25 | 61.08653 | -26.28455 | 38221 ft | 479 kts | 271° |
| 2026-05-06 18:25 | 61.08516 | -26.42215 | 38225 ft | 479 kts | 271° |
| 2026-05-06 18:26 | 61.08364 | -26.55984 | 38210 ft | 479 kts | 271° |
| 2026-05-06 18:26 | 61.08198 | -26.69749 | 38231 ft | 479 kts | 271° |
| 2026-05-06 18:27 | 61.08018 | -26.83528 | 38239 ft | 480 kts | 271° |
| 2026-05-06 18:27 | 61.07824 | -26.97330 | 38238 ft | 481 kts | 271° |
| 2026-05-06 18:28 | 61.07617 | -27.11059 | 38240 ft | 481 kts | 271° |
| 2026-05-06 18:28 | 61.07394 | -27.24867 | 38242 ft | 481 kts | 271° |
| 2026-05-06 18:29 | 61.07157 | -27.38680 | 38240 ft | 481 kts | 271° |
| 2026-05-06 18:29 | 61.06907 | -27.52473 | 38252 ft | 480 kts | 271° |
| 2026-05-06 18:30 | 61.06643 | -27.66257 | 38263 ft | 481 kts | 270° |
| 2026-05-06 18:30 | 61.06364 | -27.80047 | 38261 ft | 481 kts | 270° |
| 2026-05-06 18:31 | 61.06072 | -27.93837 | 38258 ft | 481 kts | 270° |
| 2026-05-06 18:31 | 61.05765 | -28.07625 | 38254 ft | 481 kts | 270° |
| 2026-05-06 18:32 | 61.05444 | -28.21403 | 38273 ft | 480 kts | 270° |
| 2026-05-06 18:32 | 61.05109 | -28.35173 | 38274 ft | 480 kts | 270° |
| 2026-05-06 18:33 | 61.04761 | -28.48935 | 38271 ft | 481 kts | 270° |
| 2026-05-06 18:33 | 61.04398 | -28.62727 | 38276 ft | 481 kts | 270° |
| 2026-05-06 18:34 | 61.04020 | -28.76519 | 38285 ft | 481 kts | 270° |
| 2026-05-06 18:34 | 61.03631 | -28.90209 | 38285 ft | 481 kts | 270° |
| 2026-05-06 18:35 | 61.03226 | -29.03987 | 38290 ft | 481 kts | 270° |
| 2026-05-06 18:35 | 61.02807 | -29.17759 | 38289 ft | 481 kts | 270° |
| 2026-05-06 18:36 | 61.02374 | -29.31533 | 38290 ft | 481 kts | 269° |
| 2026-05-06 18:36 | 61.01926 | -29.45299 | 38300 ft | 481 kts | 269° |
| 2026-05-06 18:37 | 61.01544 | -29.56745 | 38300 ft | 481 kts | 269° |
| 2026-05-06 18:37 | 61.00989 | -29.72832 | 38301 ft | 481 kts | 269° |
| 2026-05-06 18:38 | 61.00499 | -29.86602 | 38303 ft | 481 kts | 269° |
| 2026-05-06 18:38 | 61.00449 | -30.00308 | 38306 ft | 476 kts | 280° |
| 2026-05-06 18:39 | 61.01871 | -30.13555 | 38311 ft | 473 kts | 288° |
| 2026-05-06 18:40 | 61.04589 | -30.33113 | 38311 ft | 473 kts | 289° |
| 2026-05-06 18:40 | 61.06415 | -30.46153 | 38306 ft | 473 kts | 289° |
| 2026-05-06 18:41 | 61.08195 | -30.59130 | 38317 ft | 472 kts | 288° |
| 2026-05-06 18:41 | 61.09964 | -30.72204 | 38324 ft | 472 kts | 288° |
| 2026-05-06 18:42 | 61.11718 | -30.85297 | 38331 ft | 473 kts | 288° |
| 2026-05-06 18:42 | 61.13462 | -30.98410 | 38330 ft | 473 kts | 288° |
| 2026-05-06 18:43 | 61.15192 | -31.11528 | 38332 ft | 473 kts | 288° |
| 2026-05-06 18:43 | 61.16911 | -31.24669 | 38333 ft | 473 kts | 288° |
| 2026-05-06 18:44 | 61.18616 | -31.37824 | 38333 ft | 473 kts | 288° |
| 2026-05-06 18:44 | 61.20309 | -31.50993 | 38332 ft | 472 kts | 288° |
| 2026-05-06 18:45 | 61.21987 | -31.64157 | 38336 ft | 472 kts | 288° |
| 2026-05-06 18:45 | 61.23652 | -31.77333 | 38341 ft | 472 kts | 288° |
| 2026-05-06 18:46 | 61.25306 | -31.90537 | 38342 ft | 472 kts | 288° |
| 2026-05-06 18:46 | 61.26935 | -32.03660 | 38340 ft | 472 kts | 287° |
| 2026-05-06 18:47 | 61.28563 | -32.16892 | 38357 ft | 473 kts | 287° |
| 2026-05-06 18:47 | 61.30179 | -32.30144 | 38356 ft | 472 kts | 287° |
| 2026-05-06 18:48 | 61.31781 | -32.43401 | 38312 ft | 472 kts | 287° |
| 2026-05-06 18:48 | 61.33370 | -32.56671 | 38362 ft | 472 kts | 287° |
| 2026-05-06 18:49 | 61.34945 | -32.69946 | 38358 ft | 472 kts | 287° |
| 2026-05-06 18:49 | 61.36508 | -32.83236 | 38361 ft | 472 kts | 287° |
| 2026-05-06 18:50 | 61.38059 | -32.96548 | 38372 ft | 472 kts | 287° |
| 2026-05-06 18:50 | 61.39596 | -33.09873 | 38370 ft | 472 kts | 287° |
| 2026-05-06 18:51 | 61.40864 | -33.20956 | 38372 ft | 472 kts | 287° |
| 2026-05-06 18:51 | 61.42378 | -33.34311 | 38377 ft | 473 kts | 287° |
| 2026-05-06 18:52 | 61.43879 | -33.47675 | 38363 ft | 472 kts | 287° |
| 2026-05-06 18:52 | 61.45366 | -33.61051 | 38384 ft | 472 kts | 286° |
| 2026-05-06 18:53 | 61.46841 | -33.74444 | 38386 ft | 472 kts | 286° |
| 2026-05-06 18:53 | 61.48303 | -33.87851 | 38387 ft | 473 kts | 286° |
| 2026-05-06 18:54 | 61.49752 | -34.01272 | 38394 ft | 473 kts | 286° |
| 2026-05-06 18:54 | 61.51187 | -34.14706 | 38393 ft | 473 kts | 286° |
| 2026-05-06 18:55 | 61.52610 | -34.28151 | 38393 ft | 473 kts | 286° |
| 2026-05-06 18:55 | 61.54019 | -34.41612 | 38401 ft | 473 kts | 286° |
| 2026-05-06 18:56 | 61.55416 | -34.55090 | 38395 ft | 473 kts | 285° |
| 2026-05-06 18:56 | 61.56796 | -34.68552 | 38410 ft | 472 kts | 285° |
| 2026-05-06 18:57 | 61.58164 | -34.82031 | 38407 ft | 472 kts | 285° |
| 2026-05-06 18:57 | 61.59518 | -34.95518 | 38409 ft | 472 kts | 285° |
| 2026-05-06 18:58 | 61.60859 | -35.09020 | 38413 ft | 472 kts | 285° |
| 2026-05-06 18:58 | 61.62187 | -35.22533 | 38411 ft | 472 kts | 285° |
| 2026-05-06 18:59 | 61.63494 | -35.35976 | 38415 ft | 472 kts | 285° |
| 2026-05-06 18:59 | 61.64804 | -35.49607 | 38422 ft | 472 kts | 285° |
| 2026-05-06 19:00 | 61.66081 | -35.63051 | 38420 ft | 471 kts | 285° |
| 2026-05-06 19:00 | 61.67353 | -35.76577 | 38426 ft | 471 kts | 285° |
| 2026-05-06 19:01 | 61.68611 | -35.90116 | 38432 ft | 471 kts | 284° |
| 2026-05-06 19:01 | 61.69857 | -36.03676 | 38429 ft | 471 kts | 284° |
| 2026-05-06 19:02 | 61.71089 | -36.17242 | 38438 ft | 471 kts | 284° |
| 2026-05-06 19:02 | 61.72308 | -36.30823 | 38434 ft | 471 kts | 284° |
| 2026-05-06 19:03 | 61.73514 | -36.44419 | 38435 ft | 472 kts | 284° |
| 2026-05-06 19:03 | 61.74705 | -36.58022 | 38422 ft | 471 kts | 284° |
| 2026-05-06 19:04 | 61.75883 | -36.71629 | 38441 ft | 471 kts | 284° |
| 2026-05-06 19:04 | 61.77047 | -36.85241 | 38441 ft | 471 kts | 284° |
| 2026-05-06 19:05 | 61.78198 | -36.98867 | 38446 ft | 471 kts | 284° |
| 2026-05-06 19:05 | 61.79336 | -37.12504 | 38446 ft | 471 kts | 284° |
| 2026-05-06 19:06 | 61.80459 | -37.26142 | 38442 ft | 471 kts | 284° |
| 2026-05-06 19:06 | 61.81570 | -37.39806 | 38454 ft | 471 kts | 284° |
| 2026-05-06 19:07 | 61.82667 | -37.53473 | 38454 ft | 471 kts | 284° |
| 2026-05-06 19:07 | 61.83750 | -37.67146 | 38451 ft | 470 kts | 283° |
| 2026-05-06 19:08 | 61.84808 | -37.80695 | 38457 ft | 469 kts | 283° |
| 2026-05-06 19:08 | 61.85858 | -37.94312 | 38454 ft | 469 kts | 283° |
| 2026-05-06 19:09 | 61.86895 | -38.07937 | 38461 ft | 469 kts | 283° |
| 2026-05-06 19:09 | 61.87919 | -38.21581 | 38450 ft | 469 kts | 283° |
| 2026-05-06 19:10 | 61.88928 | -38.35218 | 38461 ft | 468 kts | 283° |
| 2026-05-06 19:10 | 61.89922 | -38.48843 | 38467 ft | 467 kts | 283° |
| 2026-05-06 19:11 | 61.90902 | -38.62470 | 38466 ft | 467 kts | 283° |
| 2026-05-06 19:11 | 61.91868 | -38.76096 | 38457 ft | 465 kts | 282° |
| 2026-05-06 19:12 | 61.92811 | -38.89618 | 38466 ft | 463 kts | 282° |
| 2026-05-06 19:12 | 61.93742 | -39.03133 | 38465 ft | 462 kts | 282° |
| 2026-05-06 19:13 | 61.94660 | -39.16648 | 38458 ft | 462 kts | 282° |
| 2026-05-06 19:13 | 61.95562 | -39.30149 | 38465 ft | 461 kts | 282° |
| 2026-05-06 19:14 | 61.96450 | -39.43650 | 38464 ft | 461 kts | 282° |
| 2026-05-06 19:14 | 61.97325 | -39.57155 | 38467 ft | 461 kts | 282° |
| 2026-05-06 19:15 | 61.98187 | -39.70673 | 38467 ft | 461 kts | 282° |
| 2026-05-06 19:15 | 61.99035 | -39.84197 | 38465 ft | 461 kts | 281° |
| 2026-05-06 19:16 | 61.99871 | -39.97730 | 38464 ft | 461 kts | 281° |
| 2026-05-06 19:16 | 62.00560 | -40.11327 | 38462 ft | 463 kts | 278° |
| 2026-05-06 19:17 | 62.00973 | -40.24921 | 38460 ft | 464 kts | 277° |
| 2026-05-06 19:17 | 62.01374 | -40.38704 | 38467 ft | 463 kts | 278° |
| 2026-05-06 19:18 | 62.01804 | -40.52396 | 38468 ft | 463 kts | 278° |
| 2026-05-06 19:18 | 62.02241 | -40.66078 | 38467 ft | 463 kts | 278° |
| 2026-05-06 19:19 | 62.02665 | -40.79675 | 38458 ft | 462 kts | 277° |
| 2026-05-06 19:19 | 62.03072 | -40.93275 | 38466 ft | 459 kts | 277° |
| 2026-05-06 19:20 | 62.03465 | -41.06832 | 38464 ft | 458 kts | 277° |
| 2026-05-06 19:20 | 62.03848 | -41.20481 | 38476 ft | 459 kts | 277° |
| 2026-05-06 19:21 | 62.04212 | -41.33957 | 38475 ft | 459 kts | 277° |
| 2026-05-06 19:21 | 62.04565 | -41.47535 | 38477 ft | 459 kts | 276° |
| 2026-05-06 19:22 | 62.04904 | -41.61106 | 38476 ft | 459 kts | 276° |
| 2026-05-06 19:22 | 62.05230 | -41.74687 | 38476 ft | 459 kts | 276° |
| 2026-05-06 19:23 | 62.05542 | -41.88244 | 38477 ft | 456 kts | 276° |
| 2026-05-06 19:23 | 62.05839 | -42.01748 | 38488 ft | 455 kts | 276° |
| 2026-05-06 19:24 | 62.06124 | -42.15225 | 38468 ft | 455 kts | 275° |
| 2026-05-06 19:24 | 62.06397 | -42.28760 | 38481 ft | 458 kts | 275° |
| 2026-05-06 19:25 | 62.06657 | -42.42350 | 38484 ft | 459 kts | 275° |
| 2026-05-06 19:25 | 62.06903 | -42.55938 | 38484 ft | 459 kts | 275° |
| 2026-05-06 19:26 | 62.07136 | -42.69534 | 38484 ft | 459 kts | 275° |
| 2026-05-06 19:26 | 62.07355 | -42.83124 | 38472 ft | 458 kts | 274° |
| 2026-05-06 19:27 | 62.07561 | -42.96687 | 38477 ft | 457 kts | 274° |
| 2026-05-06 19:27 | 62.07753 | -43.10232 | 38478 ft | 457 kts | 274° |
| 2026-05-06 19:28 | 62.07933 | -43.23794 | 38471 ft | 458 kts | 274° |
| 2026-05-06 19:28 | 62.08100 | -43.37412 | 38471 ft | 460 kts | 273° |
| 2026-05-06 19:29 | 62.08253 | -43.51052 | 38472 ft | 460 kts | 273° |
| 2026-05-06 19:29 | 62.08393 | -43.64700 | 38469 ft | 460 kts | 273° |
| 2026-05-06 19:30 | 62.08520 | -43.78350 | 38464 ft | 460 kts | 273° |
| 2026-05-06 19:30 | 62.08633 | -43.92005 | 38468 ft | 461 kts | 272° |
| 2026-05-06 19:31 | 62.08734 | -44.05681 | 38461 ft | 461 kts | 272° |
| 2026-05-06 19:31 | 62.08859 | -44.26231 | 38461 ft | 463 kts | 272° |
| 2026-05-06 19:32 | 62.08925 | -44.39905 | 38412 ft | 465 kts | 272° |
| 2026-05-06 19:32 | 62.08977 | -44.53700 | 38387 ft | 465 kts | 272° |
| 2026-05-06 19:33 | 62.09016 | -44.67491 | 38390 ft | 465 kts | 271° |
| 2026-05-06 19:33 | 62.09042 | -44.81286 | 38320 ft | 465 kts | 271° |
| 2026-05-06 19:34 | 62.09054 | -44.95109 | 38325 ft | 467 kts | 271° |
| 2026-05-06 19:34 | 62.09052 | -45.08987 | 38310 ft | 468 kts | 271° |
| 2026-05-06 19:35 | 62.09036 | -45.22890 | 38322 ft | 469 kts | 271° |
| 2026-05-06 19:35 | 62.09006 | -45.36848 | 38305 ft | 471 kts | 270° |
| 2026-05-06 19:36 | 62.08962 | -45.50856 | 38316 ft | 472 kts | 270° |
| 2026-05-06 19:36 | 62.08903 | -45.64862 | 38319 ft | 472 kts | 270° |
| 2026-05-06 19:37 | 62.08830 | -45.78870 | 38320 ft | 472 kts | 270° |
| 2026-05-06 19:37 | 62.08759 | -45.90514 | 38310 ft | 474 kts | 270° |
| 2026-05-06 19:38 | 62.08642 | -46.07101 | 38306 ft | 482 kts | 270° |
| 2026-05-06 19:38 | 62.08545 | -46.18965 | 38302 ft | 481 kts | 269° |
| 2026-05-06 19:39 | 62.08415 | -46.33261 | 38288 ft | 484 kts | 269° |
| 2026-05-06 19:39 | 62.08269 | -46.47679 | 38274 ft | 486 kts | 269° |
| 2026-05-06 19:40 | 62.08107 | -46.62095 | 38270 ft | 486 kts | 269° |
| 2026-05-06 19:40 | 62.07931 | -46.76518 | 38267 ft | 486 kts | 269° |
| 2026-05-06 19:41 | 62.07740 | -46.90946 | 38268 ft | 488 kts | 268° |
| 2026-05-06 19:41 | 62.07532 | -47.05534 | 38261 ft | 495 kts | 268° |
| 2026-05-06 19:42 | 62.07305 | -47.20276 | 38261 ft | 499 kts | 268° |
| 2026-05-06 19:42 | 62.07062 | -47.35080 | 38251 ft | 501 kts | 268° |
| 2026-05-06 19:43 | 62.06800 | -47.49997 | 38250 ft | 505 kts | 268° |
| 2026-05-06 19:43 | 62.06523 | -47.64915 | 38239 ft | 504 kts | 267° |
| 2026-05-06 19:44 | 62.06229 | -47.79858 | 38225 ft | 503 kts | 267° |
| 2026-05-06 19:44 | 62.05920 | -47.94735 | 38234 ft | 503 kts | 266° |
| 2026-05-06 19:45 | 62.05595 | -48.09589 | 38211 ft | 501 kts | 266° |
| 2026-05-06 19:45 | 62.05255 | -48.24403 | 38217 ft | 500 kts | 266° |
| 2026-05-06 19:46 | 62.04899 | -48.39224 | 38209 ft | 501 kts | 265° |
| 2026-05-06 19:46 | 62.04529 | -48.53967 | 38191 ft | 502 kts | 265° |
| 2026-05-06 19:47 | 62.04140 | -48.68817 | 38193 ft | 502 kts | 265° |
| 2026-05-06 19:47 | 62.03736 | -48.83651 | 38191 ft | 502 kts | 265° |
| 2026-05-06 19:48 | 62.03319 | -48.98472 | 38182 ft | 500 kts | 264° |
| 2026-05-06 19:48 | 62.02885 | -49.13230 | 38176 ft | 498 kts | 263° |
| 2026-05-06 19:49 | 62.02435 | -49.27961 | 38185 ft | 498 kts | 263° |
| 2026-05-06 19:49 | 62.01970 | -49.42685 | 38177 ft | 499 kts | 263° |
| 2026-05-06 19:50 | 62.01489 | -49.57416 | 38179 ft | 499 kts | 263° |
| 2026-05-06 19:50 | 62.00992 | -49.72140 | 38178 ft | 499 kts | 263° |
| 2026-05-06 19:51 | 62.00481 | -49.86854 | 38178 ft | 499 kts | 263° |
| 2026-05-06 19:51 | 62.00109 | -50.01601 | 38475 ft | 500 kts | 268° |
| 2026-05-06 19:52 | 62.00175 | -50.08981 | 38780 ft | 498 kts | 268° |
| 2026-05-06 19:52 | 62.00276 | -50.16332 | 38999 ft | 496 kts | 269° |
| 2026-05-06 19:52 | 62.00393 | -50.23563 | 39139 ft | 496 kts | 269° |
| 2026-05-06 19:52 | 62.00516 | -50.30894 | 39260 ft | 496 kts | 269° |
| 2026-05-06 19:53 | 62.00638 | -50.38236 | 39373 ft | 496 kts | 269° |
| 2026-05-06 19:53 | 62.00755 | -50.45575 | 39500 ft | 496 kts | 269° |
| 2026-05-06 19:53 | 62.00866 | -50.52903 | 39621 ft | 496 kts | 269° |
| 2026-05-06 19:53 | 62.00971 | -50.60241 | 39724 ft | 496 kts | 269° |
| 2026-05-06 19:54 | 62.01070 | -50.67564 | 39832 ft | 496 kts | 269° |
| 2026-05-06 19:54 | 62.01165 | -50.74899 | 39937 ft | 496 kts | 269° |
| 2026-05-06 19:54 | 62.01255 | -50.82230 | 40043 ft | 495 kts | 269° |
| 2026-05-06 19:54 | 62.01342 | -50.89559 | 40138 ft | 496 kts | 269° |
| 2026-05-06 19:55 | 62.01504 | -51.04267 | 40157 ft | 497 kts | 269° |
| 2026-05-06 19:55 | 62.01652 | -51.18984 | 40148 ft | 497 kts | 267° |
| 2026-05-06 19:56 | 62.01782 | -51.33730 | 40143 ft | 499 kts | 268° |
| 2026-05-06 19:56 | 62.01898 | -51.48502 | 40143 ft | 499 kts | 268° |
| 2026-05-06 19:57 | 62.02001 | -51.63273 | 40124 ft | 499 kts | 266° |
| 2026-05-06 19:57 | 62.02086 | -51.78053 | 40125 ft | 499 kts | 267° |
| 2026-05-06 19:58 | 62.02154 | -51.92817 | 40115 ft | 499 kts | 266° |
| 2026-05-06 19:58 | 62.02204 | -52.07572 | 40110 ft | 498 kts | 266° |
| 2026-05-06 19:59 | 62.02244 | -52.22367 | 40099 ft | 500 kts | 267° |
| 2026-05-06 19:59 | 62.02266 | -52.37186 | 40094 ft | 501 kts | 266° |
| 2026-05-06 20:00 | 62.02271 | -52.52050 | 40078 ft | 502 kts | 267° |
| 2026-05-06 20:00 | 62.02261 | -52.66807 | 40074 ft | 501 kts | 266° |
| 2026-05-06 20:01 | 62.02233 | -52.81653 | 40070 ft | 501 kts | 267° |
| 2026-05-06 20:01 | 62.02194 | -52.96495 | 40053 ft | 501 kts | 265° |
| 2026-05-06 20:02 | 62.02126 | -53.11370 | 40039 ft | 503 kts | 266° |
| 2026-05-06 20:02 | 62.02051 | -53.26274 | 40052 ft | 504 kts | 265° |
| 2026-05-06 20:03 | 62.01967 | -53.41198 | 40029 ft | 503 kts | 264° |
| 2026-05-06 20:03 | 62.01862 | -53.56123 | 40022 ft | 506 kts | 264° |
| 2026-05-06 20:04 | 62.01739 | -53.71095 | 40006 ft | 506 kts | 264° |
| 2026-05-06 20:04 | 62.01604 | -53.86093 | 40006 ft | 507 kts | 265° |
| 2026-05-06 20:05 | 62.01450 | -54.01006 | 39984 ft | 508 kts | 263° |
| 2026-05-06 20:05 | 62.01268 | -54.16192 | 39978 ft | 510 kts | 265° |
| 2026-05-06 20:06 | 62.01082 | -54.31171 | 39984 ft | 510 kts | 264° |
| 2026-05-06 20:06 | 62.00875 | -54.46252 | 39946 ft | 509 kts | 265° |
| 2026-05-06 20:07 | 62.00656 | -54.61325 | 39964 ft | 510 kts | 265° |
| 2026-05-06 20:07 | 62.00420 | -54.76395 | 39946 ft | 509 kts | 263° |
| 2026-05-06 20:08 | 62.00161 | -54.91481 | 39923 ft | 510 kts | 263° |
| 2026-05-06 20:08 | 61.98927 | -55.06150 | 39925 ft | 501 kts | 248° |
| 2026-05-06 20:09 | 61.96750 | -55.20186 | 39916 ft | 499 kts | 246° |
| 2026-05-06 20:09 | 61.94410 | -55.34077 | 39896 ft | 499 kts | 245° |
| 2026-05-06 20:10 | 61.92049 | -55.47945 | 39896 ft | 499 kts | 244° |
| 2026-05-06 20:10 | 61.89693 | -55.61797 | 39883 ft | 499 kts | 246° |
| 2026-05-06 20:11 | 61.87336 | -55.75656 | 39861 ft | 500 kts | 244° |
| 2026-05-06 20:11 | 61.84968 | -55.89503 | 39839 ft | 500 kts | 245° |
| 2026-05-06 20:12 | 61.82586 | -56.03330 | 39842 ft | 501 kts | 245° |
| 2026-05-06 20:12 | 61.80176 | -56.17161 | 39812 ft | 501 kts | 245° |
| 2026-05-06 20:13 | 61.77754 | -56.30958 | 39815 ft | 501 kts | 245° |
| 2026-05-06 20:13 | 61.75318 | -56.44745 | 39816 ft | 501 kts | 245° |
| 2026-05-06 20:14 | 61.72873 | -56.58499 | 39788 ft | 501 kts | 245° |
| 2026-05-06 20:14 | 61.70410 | -56.72232 | 39782 ft | 501 kts | 245° |
| 2026-05-06 20:15 | 61.67940 | -56.85947 | 39758 ft | 501 kts | 245° |
| 2026-05-06 20:15 | 61.65455 | -56.99638 | 39758 ft | 501 kts | 246° |
| 2026-05-06 20:16 | 61.62954 | -57.13298 | 39752 ft | 501 kts | 245° |
| 2026-05-06 20:16 | 61.60440 | -57.26945 | 39735 ft | 501 kts | 245° |
| 2026-05-06 20:17 | 61.57910 | -57.40578 | 39733 ft | 501 kts | 245° |
| 2026-05-06 20:17 | 61.55368 | -57.54181 | 39714 ft | 501 kts | 244° |
| 2026-05-06 20:18 | 61.52811 | -57.67750 | 39707 ft | 500 kts | 245° |
| 2026-05-06 20:18 | 61.50244 | -57.81303 | 39688 ft | 500 kts | 244° |
| 2026-05-06 20:19 | 61.47682 | -57.94737 | 39690 ft | 500 kts | 244° |
| 2026-05-06 20:19 | 61.45179 | -58.08300 | 39662 ft | 501 kts | 246° |
| 2026-05-06 20:20 | 61.43001 | -58.22133 | 39661 ft | 501 kts | 248° |
| 2026-05-06 20:20 | 61.40851 | -58.36009 | 39642 ft | 503 kts | 248° |
| 2026-05-06 20:21 | 61.38626 | -58.49866 | 39636 ft | 504 kts | 247° |
| 2026-05-06 20:21 | 61.36359 | -58.63709 | 39636 ft | 504 kts | 246° |
| 2026-05-06 20:22 | 61.34077 | -58.77514 | 39620 ft | 503 kts | 246° |
| 2026-05-06 20:22 | 61.31785 | -58.91265 | 39617 ft | 502 kts | 246° |
| 2026-05-06 20:23 | 61.29479 | -59.04971 | 39613 ft | 502 kts | 246° |
| 2026-05-06 20:23 | 61.27160 | -59.18656 | 39612 ft | 502 kts | 246° |
| 2026-05-06 20:24 | 61.24824 | -59.32317 | 39622 ft | 502 kts | 247° |
| 2026-05-06 20:24 | 61.22479 | -59.45987 | 39597 ft | 504 kts | 246° |
| 2026-05-06 20:25 | 61.20115 | -59.59689 | 39594 ft | 505 kts | 246° |
| 2026-05-06 20:25 | 61.17737 | -59.73376 | 39581 ft | 505 kts | 246° |
| 2026-05-06 20:26 | 61.15340 | -59.87032 | 39584 ft | 504 kts | 246° |
| 2026-05-06 20:26 | 61.12925 | -60.00667 | 39565 ft | 504 kts | 246° |
| 2026-05-06 20:27 | 61.10503 | -60.14279 | 39564 ft | 504 kts | 247° |
| 2026-05-06 20:27 | 61.08069 | -60.27866 | 39569 ft | 504 kts | 246° |
| 2026-05-06 20:28 | 61.05638 | -60.41324 | 39556 ft | 503 kts | 246° |
| 2026-05-06 20:28 | 61.03180 | -60.54827 | 39557 ft | 502 kts | 246° |
| 2026-05-06 20:29 | 61.00714 | -60.68291 | 39552 ft | 502 kts | 246° |
| 2026-05-06 20:29 | 60.98635 | -60.79545 | 39550 ft | 502 kts | 245° |
| 2026-05-06 20:30 | 60.94892 | -60.99673 | 39542 ft | 502 kts | 245° |
| 2026-05-06 20:31 | 60.92386 | -61.13068 | 39554 ft | 502 kts | 246° |
| 2026-05-06 20:31 | 60.89868 | -61.26419 | 39534 ft | 500 kts | 245° |
| 2026-05-06 20:32 | 60.87339 | -61.39726 | 39545 ft | 500 kts | 245° |
| 2026-05-06 20:32 | 60.84791 | -61.53034 | 39542 ft | 502 kts | 245° |
| 2026-05-06 20:33 | 60.82241 | -61.66269 | 39537 ft | 503 kts | 245° |
| 2026-05-06 20:33 | 60.79662 | -61.79569 | 39536 ft | 503 kts | 245° |
| 2026-05-06 20:34 | 60.77068 | -61.92855 | 39545 ft | 502 kts | 245° |
| 2026-05-06 20:34 | 60.74466 | -62.06100 | 39539 ft | 501 kts | 245° |
| 2026-05-06 20:35 | 60.71852 | -62.19313 | 39539 ft | 501 kts | 245° |
| 2026-05-06 20:35 | 60.69228 | -62.32489 | 39539 ft | 501 kts | 245° |
| 2026-05-06 20:36 | 60.66589 | -62.45652 | 39550 ft | 501 kts | 245° |
| 2026-05-06 20:36 | 60.63933 | -62.58814 | 39538 ft | 502 kts | 245° |
| 2026-05-06 20:37 | 60.61263 | -62.71961 | 39540 ft | 502 kts | 245° |
| 2026-05-06 20:37 | 60.58581 | -62.85084 | 39536 ft | 502 kts | 245° |
| 2026-05-06 20:38 | 60.55888 | -62.98177 | 39555 ft | 502 kts | 244° |
| 2026-05-06 20:38 | 60.53184 | -63.11240 | 39545 ft | 502 kts | 244° |
| 2026-05-06 20:39 | 60.50465 | -63.24288 | 39555 ft | 502 kts | 244° |
| 2026-05-06 20:39 | 60.47734 | -63.37312 | 39549 ft | 502 kts | 244° |
| 2026-05-06 20:40 | 60.44991 | -63.50309 | 39555 ft | 502 kts | 244° |
| 2026-05-06 20:40 | 60.42234 | -63.63293 | 39551 ft | 502 kts | 244° |
| 2026-05-06 20:41 | 60.39462 | -63.76265 | 39549 ft | 502 kts | 244° |
| 2026-05-06 20:41 | 60.36680 | -63.89207 | 39554 ft | 502 kts | 244° |
| 2026-05-06 20:42 | 60.33886 | -64.02122 | 39558 ft | 502 kts | 244° |
| 2026-05-06 20:42 | 60.31077 | -64.15024 | 39554 ft | 502 kts | 244° |
| 2026-05-06 20:43 | 60.28277 | -64.27810 | 39560 ft | 502 kts | 244° |
| 2026-05-06 20:43 | 60.25447 | -64.40649 | 39558 ft | 502 kts | 243° |
| 2026-05-06 20:44 | 60.22602 | -64.53481 | 39561 ft | 502 kts | 243° |
| 2026-05-06 20:44 | 60.19743 | -64.66296 | 39564 ft | 503 kts | 243° |
| 2026-05-06 20:45 | 60.16870 | -64.79099 | 39564 ft | 503 kts | 243° |
| 2026-05-06 20:45 | 60.13985 | -64.91878 | 39565 ft | 502 kts | 243° |
| 2026-05-06 20:46 | 60.11077 | -65.04616 | 39564 ft | 502 kts | 242° |
| 2026-05-06 20:46 | 60.07209 | -65.16092 | 39568 ft | 495 kts | 224° |
| 2026-05-06 20:47 | 60.01862 | -65.24587 | 39569 ft | 491 kts | 211° |
| 2026-05-06 20:47 | 59.96017 | -65.31651 | 39576 ft | 491 kts | 208° |
| 2026-05-06 20:48 | 59.90109 | -65.38497 | 39585 ft | 491 kts | 208° |
| 2026-05-06 20:48 | 59.84215 | -65.45374 | 39576 ft | 491 kts | 209° |
| 2026-05-06 20:49 | 59.78328 | -65.52286 | 39574 ft | 491 kts | 209° |
| 2026-05-06 20:49 | 59.72445 | -65.59191 | 39581 ft | 491 kts | 209° |
| 2026-05-06 20:50 | 59.66599 | -65.66023 | 39583 ft | 491 kts | 209° |
| 2026-05-06 20:50 | 59.60706 | -65.72879 | 39587 ft | 491 kts | 209° |
| 2026-05-06 20:51 | 59.54814 | -65.79703 | 39585 ft | 491 kts | 209° |
| 2026-05-06 20:51 | 59.48916 | -65.86507 | 39586 ft | 491 kts | 208° |
| 2026-05-06 20:52 | 59.43014 | -65.93287 | 39586 ft | 491 kts | 208° |
| 2026-05-06 20:52 | 59.37114 | -66.00038 | 39587 ft | 491 kts | 208° |
| 2026-05-06 20:53 | 59.31203 | -66.06773 | 39590 ft | 491 kts | 208° |
| 2026-05-06 20:53 | 59.25295 | -66.13477 | 39591 ft | 491 kts | 208° |
| 2026-05-06 20:54 | 59.19381 | -66.20162 | 39590 ft | 491 kts | 208° |
| 2026-05-06 20:54 | 59.13464 | -66.26823 | 39596 ft | 491 kts | 208° |
| 2026-05-06 20:55 | 59.07542 | -66.33462 | 39589 ft | 491 kts | 208° |
| 2026-05-06 20:55 | 59.01625 | -66.40071 | 39590 ft | 491 kts | 208° |
| 2026-05-06 20:56 | 58.95705 | -66.46654 | 39592 ft | 491 kts | 208° |
| 2026-05-06 20:56 | 58.89779 | -66.53219 | 39603 ft | 491 kts | 208° |
| 2026-05-06 20:57 | 58.83857 | -66.59753 | 39595 ft | 490 kts | 208° |
| 2026-05-06 20:57 | 58.77942 | -66.66254 | 39594 ft | 489 kts | 208° |
| 2026-05-06 20:58 | 58.72065 | -66.72687 | 39593 ft | 489 kts | 208° |
| 2026-05-06 20:58 | 58.66143 | -66.79145 | 39595 ft | 489 kts | 208° |
| 2026-05-06 20:59 | 58.60211 | -66.85587 | 39589 ft | 490 kts | 208° |
| 2026-05-06 20:59 | 58.54272 | -66.92012 | 39592 ft | 490 kts | 208° |
| 2026-05-06 21:00 | 58.48329 | -66.98416 | 39590 ft | 490 kts | 208° |
| 2026-05-06 21:00 | 58.42384 | -67.04798 | 39592 ft | 490 kts | 208° |
| 2026-05-06 21:01 | 58.36438 | -67.11155 | 39591 ft | 489 kts | 208° |
| 2026-05-06 21:01 | 58.30505 | -67.17474 | 39594 ft | 488 kts | 208° |
| 2026-05-06 21:02 | 58.24572 | -67.23768 | 39597 ft | 488 kts | 208° |
| 2026-05-06 21:02 | 58.18640 | -67.30037 | 39595 ft | 488 kts | 208° |
| 2026-05-06 21:03 | 58.12700 | -67.36289 | 39600 ft | 488 kts | 208° |
| 2026-05-06 21:03 | 58.06768 | -67.42510 | 39597 ft | 487 kts | 208° |
| 2026-05-06 21:04 | 58.00846 | -67.48697 | 39603 ft | 486 kts | 208° |
| 2026-05-06 21:04 | 57.94922 | -67.54862 | 39605 ft | 487 kts | 208° |
| 2026-05-06 21:05 | 57.88996 | -67.61007 | 39607 ft | 486 kts | 208° |
| 2026-05-06 21:05 | 57.83073 | -67.67123 | 39607 ft | 486 kts | 208° |
| 2026-05-06 21:06 | 57.77148 | -67.73221 | 39610 ft | 486 kts | 208° |
| 2026-05-06 21:06 | 57.71216 | -67.79301 | 39606 ft | 486 kts | 208° |
| 2026-05-06 21:07 | 57.65288 | -67.85356 | 39611 ft | 486 kts | 208° |
| 2026-05-06 21:07 | 57.59355 | -67.91393 | 39616 ft | 486 kts | 208° |
| 2026-05-06 21:08 | 57.53415 | -67.97412 | 39612 ft | 486 kts | 208° |
| 2026-05-06 21:08 | 57.47473 | -68.03412 | 39613 ft | 486 kts | 208° |
| 2026-05-06 21:09 | 57.41530 | -68.09391 | 39618 ft | 486 kts | 208° |
| 2026-05-06 21:09 | 57.35622 | -68.15312 | 39615 ft | 486 kts | 208° |
| 2026-05-06 21:10 | 57.29678 | -68.21248 | 39618 ft | 485 kts | 208° |
| 2026-05-06 21:10 | 57.23731 | -68.27165 | 39620 ft | 485 kts | 208° |
| 2026-05-06 21:11 | 57.17784 | -68.33061 | 39615 ft | 485 kts | 208° |
| 2026-05-06 21:11 | 57.11835 | -68.38936 | 39617 ft | 485 kts | 208° |
| 2026-05-06 21:12 | 57.05896 | -68.44780 | 39619 ft | 483 kts | 208° |
| 2026-05-06 21:12 | 56.99966 | -68.50593 | 39620 ft | 483 kts | 208° |
| 2026-05-06 21:13 | 56.94030 | -68.56392 | 39620 ft | 483 kts | 208° |
| 2026-05-06 21:13 | 56.88096 | -68.62168 | 39621 ft | 483 kts | 208° |
| 2026-05-06 21:14 | 56.82156 | -68.67928 | 39624 ft | 483 kts | 208° |
| 2026-05-06 21:14 | 56.76215 | -68.73669 | 39621 ft | 483 kts | 208° |
| 2026-05-06 21:15 | 56.70269 | -68.79393 | 39622 ft | 483 kts | 208° |
| 2026-05-06 21:15 | 56.64321 | -68.85099 | 39626 ft | 483 kts | 208° |
| 2026-05-06 21:16 | 56.58390 | -68.90768 | 39629 ft | 481 kts | 208° |
| 2026-05-06 21:16 | 56.52464 | -68.96412 | 39628 ft | 481 kts | 208° |
| 2026-05-06 21:17 | 56.46541 | -69.02035 | 39624 ft | 481 kts | 208° |
| 2026-05-06 21:17 | 56.41620 | -69.06690 | 39628 ft | 481 kts | 208° |
| 2026-05-06 21:18 | 56.35698 | -69.12275 | 39632 ft | 480 kts | 208° |
| 2026-05-06 21:18 | 56.29774 | -69.17842 | 39633 ft | 480 kts | 208° |
| 2026-05-06 21:19 | 56.23843 | -69.23395 | 39641 ft | 480 kts | 208° |
| 2026-05-06 21:19 | 56.17912 | -69.28929 | 39632 ft | 480 kts | 208° |
| 2026-05-06 21:20 | 56.11983 | -69.34441 | 39639 ft | 480 kts | 208° |
| 2026-05-06 21:20 | 56.06056 | -69.39933 | 39640 ft | 480 kts | 208° |
| 2026-05-06 21:21 | 56.00127 | -69.45408 | 39644 ft | 480 kts | 208° |
| 2026-05-06 21:21 | 55.94191 | -69.50870 | 39648 ft | 480 kts | 208° |
| 2026-05-06 21:22 | 55.88260 | -69.56307 | 39651 ft | 479 kts | 208° |
| 2026-05-06 21:22 | 55.82335 | -69.61722 | 39649 ft | 479 kts | 208° |
| 2026-05-06 21:23 | 55.76406 | -69.67121 | 39655 ft | 479 kts | 208° |
| 2026-05-06 21:23 | 55.70473 | -69.72506 | 39655 ft | 479 kts | 208° |
| 2026-05-06 21:24 | 55.64581 | -69.77835 | 39661 ft | 479 kts | 208° |
| 2026-05-06 21:24 | 55.58646 | -69.83184 | 39666 ft | 479 kts | 208° |
| 2026-05-06 21:25 | 55.52709 | -69.88517 | 39662 ft | 479 kts | 208° |
| 2026-05-06 21:25 | 55.46768 | -69.93835 | 39669 ft | 479 kts | 208° |
| 2026-05-06 21:26 | 55.40825 | -69.99138 | 39667 ft | 479 kts | 208° |
| 2026-05-06 21:26 | 55.34877 | -70.04426 | 39669 ft | 479 kts | 208° |
| 2026-05-06 21:27 | 55.28927 | -70.09699 | 39679 ft | 479 kts | 208° |
| 2026-05-06 21:27 | 55.22968 | -70.14962 | 39677 ft | 479 kts | 208° |
| 2026-05-06 21:28 | 55.17016 | -70.20200 | 39686 ft | 479 kts | 208° |
| 2026-05-06 21:28 | 55.11064 | -70.25421 | 39677 ft | 479 kts | 208° |
| 2026-05-06 21:29 | 55.05109 | -70.30628 | 39676 ft | 479 kts | 208° |
| 2026-05-06 21:29 | 54.99152 | -70.35818 | 39693 ft | 478 kts | 207° |
| 2026-05-06 21:30 | 54.93200 | -70.40988 | 39687 ft | 478 kts | 207° |
| 2026-05-06 21:30 | 54.87249 | -70.46138 | 39693 ft | 478 kts | 207° |
| 2026-05-06 21:31 | 54.81337 | -70.51239 | 39694 ft | 478 kts | 207° |
| 2026-05-06 21:31 | 54.75382 | -70.56359 | 39694 ft | 478 kts | 207° |
| 2026-05-06 21:32 | 54.69429 | -70.61460 | 39689 ft | 477 kts | 207° |
| 2026-05-06 21:32 | 54.60509 | -70.69074 | 39694 ft | 476 kts | 207° |
| 2026-05-06 21:33 | 54.54564 | -70.74128 | 39702 ft | 476 kts | 207° |
| 2026-05-06 21:33 | 54.48615 | -70.79169 | 39699 ft | 477 kts | 207° |
| 2026-05-06 21:34 | 54.42664 | -70.84194 | 39702 ft | 477 kts | 207° |
| 2026-05-06 21:34 | 54.36708 | -70.89208 | 39697 ft | 477 kts | 207° |
| 2026-05-06 21:35 | 54.30755 | -70.94203 | 39707 ft | 477 kts | 207° |
| 2026-05-06 21:35 | 54.24797 | -70.99185 | 39704 ft | 476 kts | 207° |
| 2026-05-06 21:36 | 54.18845 | -71.04147 | 39706 ft | 476 kts | 207° |
| 2026-05-06 21:36 | 54.12933 | -71.09060 | 39713 ft | 476 kts | 207° |
| 2026-05-06 21:37 | 54.06979 | -71.13991 | 39713 ft | 476 kts | 207° |
| 2026-05-06 21:37 | 54.01025 | -71.18907 | 39708 ft | 475 kts | 207° |
| 2026-05-06 21:38 | 53.95083 | -71.23796 | 39714 ft | 474 kts | 207° |
| 2026-05-06 21:38 | 53.89148 | -71.28665 | 39718 ft | 474 kts | 207° |
| 2026-05-06 21:39 | 53.83208 | -71.33524 | 39722 ft | 474 kts | 207° |
| 2026-05-06 21:39 | 53.77268 | -71.38366 | 39719 ft | 474 kts | 207° |
| 2026-05-06 21:40 | 53.71335 | -71.43187 | 39722 ft | 473 kts | 207° |
| 2026-05-06 21:40 | 53.65404 | -71.47992 | 39724 ft | 473 kts | 207° |
| 2026-05-06 21:41 | 53.59476 | -71.52779 | 39727 ft | 473 kts | 207° |
| 2026-05-06 21:41 | 53.53546 | -71.57553 | 39726 ft | 472 kts | 207° |
| 2026-05-06 21:42 | 53.47623 | -71.62306 | 39732 ft | 471 kts | 207° |
| 2026-05-06 21:42 | 53.41709 | -71.67038 | 39736 ft | 471 kts | 207° |
| 2026-05-06 21:43 | 53.35829 | -71.71728 | 39748 ft | 471 kts | 207° |
| 2026-05-06 21:43 | 53.29910 | -71.76434 | 39738 ft | 472 kts | 207° |
| 2026-05-06 21:44 | 53.23967 | -71.81145 | 39741 ft | 473 kts | 207° |
| 2026-05-06 21:44 | 53.18019 | -71.85845 | 39740 ft | 473 kts | 207° |
| 2026-05-06 21:45 | 53.12068 | -71.90534 | 39749 ft | 473 kts | 207° |
| 2026-05-06 21:45 | 53.06114 | -71.95209 | 39751 ft | 473 kts | 207° |
| 2026-05-06 21:46 | 53.00466 | -72.00695 | 39753 ft | 470 kts | 219° |
| 2026-05-06 21:46 | 52.95891 | -72.08383 | 39752 ft | 469 kts | 230° |
| 2026-05-06 21:47 | 52.91785 | -72.16799 | 39751 ft | 470 kts | 232° |
| 2026-05-06 21:47 | 52.87743 | -72.25291 | 39750 ft | 469 kts | 231° |
| 2026-05-06 21:48 | 52.83685 | -72.33722 | 39752 ft | 468 kts | 231° |
| 2026-05-06 21:48 | 52.79607 | -72.42101 | 39752 ft | 468 kts | 231° |
| 2026-05-06 21:49 | 52.75514 | -72.50460 | 39752 ft | 468 kts | 231° |
| 2026-05-06 21:49 | 52.71418 | -72.58798 | 39754 ft | 468 kts | 231° |
| 2026-05-06 21:50 | 52.67318 | -72.67119 | 39755 ft | 467 kts | 231° |
| 2026-05-06 21:50 | 52.63219 | -72.75414 | 39762 ft | 467 kts | 231° |
| 2026-05-06 21:51 | 52.59100 | -72.83721 | 39757 ft | 469 kts | 231° |
| 2026-05-06 21:51 | 52.54970 | -72.92023 | 39761 ft | 469 kts | 231° |
| 2026-05-06 21:52 | 52.50834 | -73.00310 | 39756 ft | 469 kts | 231° |
| 2026-05-06 21:52 | 52.46699 | -73.08567 | 39769 ft | 467 kts | 231° |
| 2026-05-06 21:53 | 52.42570 | -73.16785 | 39766 ft | 467 kts | 230° |
| 2026-05-06 21:53 | 52.38435 | -73.24990 | 39766 ft | 467 kts | 230° |
| 2026-05-06 21:54 | 52.34296 | -73.33176 | 39771 ft | 467 kts | 230° |
| 2026-05-06 21:54 | 52.30149 | -73.41350 | 39768 ft | 467 kts | 230° |
| 2026-05-06 21:55 | 52.26025 | -73.49453 | 39789 ft | 467 kts | 230° |
| 2026-05-06 21:55 | 52.21859 | -73.57612 | 39772 ft | 469 kts | 230° |
| 2026-05-06 21:56 | 52.17674 | -73.65783 | 39771 ft | 470 kts | 230° |
| 2026-05-06 21:56 | 52.13478 | -73.73947 | 39772 ft | 470 kts | 230° |
| 2026-05-06 21:57 | 52.09283 | -73.82085 | 39772 ft | 469 kts | 230° |
| 2026-05-06 21:57 | 52.05093 | -73.90185 | 39774 ft | 468 kts | 230° |
| 2026-05-06 21:58 | 52.00939 | -73.98308 | 39771 ft | 468 kts | 233° |
| 2026-05-06 21:58 | 51.97475 | -74.07235 | 39772 ft | 468 kts | 239° |
| 2026-05-06 21:59 | 51.94266 | -74.16415 | 39774 ft | 468 kts | 240° |
| 2026-05-06 21:59 | 51.91094 | -74.25620 | 39778 ft | 468 kts | 240° |
| 2026-05-06 22:00 | 51.87898 | -74.34824 | 39779 ft | 469 kts | 240° |
| 2026-05-06 22:00 | 51.84684 | -74.44005 | 39779 ft | 469 kts | 240° |
| 2026-05-06 22:01 | 51.81460 | -74.53164 | 39782 ft | 469 kts | 240° |
| 2026-05-06 22:01 | 51.78225 | -74.62323 | 39782 ft | 469 kts | 240° |
| 2026-05-06 22:02 | 51.74987 | -74.71461 | 39779 ft | 469 kts | 240° |
| 2026-05-06 22:02 | 51.71750 | -74.80563 | 39787 ft | 467 kts | 240° |
| 2026-05-06 22:03 | 51.68512 | -74.89634 | 39795 ft | 467 kts | 239° |
| 2026-05-06 22:03 | 51.65266 | -74.98696 | 39797 ft | 467 kts | 239° |
| 2026-05-06 22:04 | 51.62016 | -75.07735 | 39793 ft | 467 kts | 239° |
| 2026-05-06 22:04 | 51.58779 | -75.16708 | 39799 ft | 467 kts | 239° |
| 2026-05-06 22:05 | 51.55516 | -75.25719 | 39795 ft | 466 kts | 239° |
| 2026-05-06 22:05 | 51.52252 | -75.34702 | 39802 ft | 466 kts | 239° |
| 2026-05-06 22:06 | 51.48981 | -75.43673 | 39813 ft | 466 kts | 239° |
| 2026-05-06 22:06 | 51.45698 | -75.52645 | 39804 ft | 467 kts | 239° |
| 2026-05-06 22:07 | 51.42399 | -75.61629 | 39807 ft | 468 kts | 239° |
| 2026-05-06 22:07 | 51.39092 | -75.70602 | 39810 ft | 467 kts | 239° |
| 2026-05-06 22:08 | 51.36346 | -75.78029 | 39815 ft | 466 kts | 239° |
| 2026-05-06 22:08 | 51.33041 | -75.86940 | 39815 ft | 465 kts | 239° |
| 2026-05-06 22:09 | 51.29732 | -75.95830 | 39818 ft | 465 kts | 239° |
| 2026-05-06 22:09 | 51.26415 | -76.04711 | 39818 ft | 465 kts | 239° |
| 2026-05-06 22:10 | 51.23089 | -76.13587 | 39825 ft | 467 kts | 239° |
| 2026-05-06 22:10 | 51.19746 | -76.22477 | 39825 ft | 467 kts | 239° |
| 2026-05-06 22:11 | 51.16399 | -76.31346 | 39829 ft | 467 kts | 239° |
| 2026-05-06 22:11 | 51.13046 | -76.40200 | 39829 ft | 467 kts | 239° |
| 2026-05-06 22:12 | 51.09687 | -76.49038 | 39833 ft | 467 kts | 238° |
| 2026-05-06 22:12 | 51.06344 | -76.57807 | 39831 ft | 467 kts | 238° |
| 2026-05-06 22:13 | 51.02972 | -76.66621 | 39851 ft | 466 kts | 238° |
| 2026-05-06 22:13 | 50.99594 | -76.75420 | 39842 ft | 467 kts | 238° |
| 2026-05-06 22:14 | 50.96204 | -76.84220 | 39846 ft | 467 kts | 238° |
| 2026-05-06 22:14 | 50.92808 | -76.93005 | 39845 ft | 467 kts | 238° |
| 2026-05-06 22:15 | 50.89405 | -77.01778 | 39849 ft | 467 kts | 238° |
| 2026-05-06 22:15 | 50.85996 | -77.10539 | 39847 ft | 467 kts | 238° |
| 2026-05-06 22:16 | 50.82584 | -77.19277 | 39849 ft | 466 kts | 238° |
| 2026-05-06 22:16 | 50.79170 | -77.27992 | 39849 ft | 466 kts | 238° |
| 2026-05-06 22:17 | 50.75741 | -77.36713 | 39849 ft | 468 kts | 238° |
| 2026-05-06 22:17 | 50.72303 | -77.45429 | 39850 ft | 468 kts | 238° |
| 2026-05-06 22:18 | 50.68857 | -77.54137 | 39850 ft | 468 kts | 238° |
| 2026-05-06 22:18 | 50.65403 | -77.62834 | 39851 ft | 468 kts | 238° |
| 2026-05-06 22:19 | 50.61951 | -77.71500 | 39851 ft | 467 kts | 238° |
| 2026-05-06 22:19 | 50.58494 | -77.80148 | 39851 ft | 467 kts | 238° |
| 2026-05-06 22:20 | 50.55027 | -77.88790 | 39855 ft | 468 kts | 238° |
| 2026-05-06 22:20 | 50.51544 | -77.97446 | 39856 ft | 469 kts | 238° |
| 2026-05-06 22:21 | 50.48077 | -78.06034 | 39852 ft | 469 kts | 238° |
| 2026-05-06 22:21 | 50.44579 | -78.14670 | 39853 ft | 469 kts | 238° |
| 2026-05-06 22:22 | 50.41073 | -78.23296 | 39851 ft | 469 kts | 237° |
| 2026-05-06 22:22 | 50.37562 | -78.31905 | 39854 ft | 469 kts | 237° |
| 2026-05-06 22:23 | 50.34045 | -78.40503 | 39863 ft | 469 kts | 237° |
| 2026-05-06 22:23 | 50.30517 | -78.49098 | 39845 ft | 470 kts | 237° |
| 2026-05-06 22:24 | 50.26979 | -78.57690 | 39853 ft | 470 kts | 237° |
| 2026-05-06 22:24 | 50.23434 | -78.66270 | 39853 ft | 470 kts | 237° |
| 2026-05-06 22:25 | 50.19883 | -78.74838 | 39856 ft | 470 kts | 237° |
| 2026-05-06 22:25 | 50.16327 | -78.83389 | 39856 ft | 470 kts | 237° |
| 2026-05-06 22:26 | 50.12766 | -78.91925 | 39856 ft | 470 kts | 237° |
| 2026-05-06 22:26 | 50.09198 | -79.00448 | 39857 ft | 469 kts | 237° |
| 2026-05-06 22:27 | 50.05624 | -79.08960 | 39853 ft | 470 kts | 237° |
| 2026-05-06 22:27 | 50.02042 | -79.17462 | 39853 ft | 470 kts | 237° |
| 2026-05-06 22:28 | 49.98453 | -79.25955 | 39857 ft | 470 kts | 237° |
| 2026-05-06 22:28 | 49.94858 | -79.34433 | 39856 ft | 470 kts | 237° |
| 2026-05-06 22:29 | 49.91259 | -79.42894 | 39854 ft | 469 kts | 237° |
| 2026-05-06 22:29 | 49.87661 | -79.51326 | 39856 ft | 468 kts | 237° |
| 2026-05-06 22:30 | 49.84055 | -79.59751 | 39860 ft | 470 kts | 237° |
| 2026-05-06 22:30 | 49.80454 | -79.68135 | 39859 ft | 471 kts | 237° |
| 2026-05-06 22:31 | 49.76824 | -79.76563 | 39859 ft | 471 kts | 237° |
| 2026-05-06 22:31 | 49.73185 | -79.84982 | 39849 ft | 470 kts | 237° |
| 2026-05-06 22:32 | 49.69550 | -79.93366 | 39859 ft | 469 kts | 237° |
| 2026-05-06 22:32 | 49.65924 | -80.01721 | 39857 ft | 468 kts | 237° |
| 2026-05-06 22:33 | 49.62594 | -80.10360 | 39864 ft | 469 kts | 241° |
| 2026-05-06 22:33 | 49.59416 | -80.19150 | 39862 ft | 470 kts | 241° |
| 2026-05-06 22:34 | 49.56195 | -80.27904 | 39862 ft | 470 kts | 240° |
| 2026-05-06 22:34 | 49.52923 | -80.36610 | 39867 ft | 469 kts | 240° |